<?xml version="1.0" encoding="UTF-8" standalone="no" ?>
<gpx xmlns="http://www.topografix.com/GPX/1/1" xmlns:xsi="http://www.w3.org/2001/XMLSchema-instance" xsi:schemaLocation="http://www.topografix.com/GPX/1/1 http://www.topografix.com/GPX/1/1/gpx.xsd" version="1.1" creator="VisuGPX - https://www.visugpx.com">
  <metadata>
    <name>-parcours camp 2021 lynx</name>
  </metadata>
  <trk>
    <name><![CDATA[13350341-parcours camp 2021 lynx]]></name>
    <trkseg>
      <trkpt lat="46.51547" lon="5.99508">
        <ele>944</ele>
        <time>2021-07-06T18:20:40Z</time>
      </trkpt>
      <trkpt lat="46.5154" lon="5.99494">
        <ele>943</ele>
        <time>2021-07-06T18:20:50Z</time>
      </trkpt>
      <trkpt lat="46.51511" lon="5.99408">
        <ele>939</ele>
        <time>2021-07-06T18:21:42Z</time>
      </trkpt>
      <trkpt lat="46.51472" lon="5.99285">
        <ele>933</ele>
        <time>2021-07-06T18:22:57Z</time>
      </trkpt>
      <trkpt lat="46.5142" lon="5.99131">
        <ele>926</ele>
        <time>2021-07-06T18:24:31Z</time>
      </trkpt>
      <trkpt lat="46.5141" lon="5.99112">
        <ele>925</ele>
        <time>2021-07-06T18:24:45Z</time>
      </trkpt>
      <trkpt lat="46.51406" lon="5.99109">
        <ele>925</ele>
        <time>2021-07-06T18:24:48Z</time>
      </trkpt>
      <trkpt lat="46.51389" lon="5.991">
        <ele>923</ele>
        <time>2021-07-06T18:25:03Z</time>
      </trkpt>
      <trkpt lat="46.51368" lon="5.99096">
        <ele>921</ele>
        <time>2021-07-06T18:25:20Z</time>
      </trkpt>
      <trkpt lat="46.51355" lon="5.99085">
        <ele>920</ele>
        <time>2021-07-06T18:25:32Z</time>
      </trkpt>
      <trkpt lat="46.51138" lon="5.98766">
        <ele>913</ele>
        <time>2021-07-06T18:29:39Z</time>
      </trkpt>
      <trkpt lat="46.50971" lon="5.98514">
        <ele>914</ele>
        <time>2021-07-06T18:32:52Z</time>
      </trkpt>
      <trkpt lat="46.50892" lon="5.98398">
        <ele>917</ele>
        <time>2021-07-06T18:34:22Z</time>
      </trkpt>
      <trkpt lat="46.5081" lon="5.98271">
        <ele>921</ele>
        <time>2021-07-06T18:35:58Z</time>
      </trkpt>
      <trkpt lat="46.5079" lon="5.98244">
        <ele>920</ele>
        <time>2021-07-06T18:36:19Z</time>
      </trkpt>
      <trkpt lat="46.5077" lon="5.98228">
        <ele>919</ele>
        <time>2021-07-06T18:36:38Z</time>
      </trkpt>
      <trkpt lat="46.50749" lon="5.98217">
        <ele>918</ele>
        <time>2021-07-06T18:36:56Z</time>
      </trkpt>
      <trkpt lat="46.50694" lon="5.98207">
        <ele>917</ele>
        <time>2021-07-06T18:37:40Z</time>
      </trkpt>
      <trkpt lat="46.50666" lon="5.98198">
        <ele>916</ele>
        <time>2021-07-06T18:38:03Z</time>
      </trkpt>
      <trkpt lat="46.50636" lon="5.98176">
        <ele>915</ele>
        <time>2021-07-06T18:38:30Z</time>
      </trkpt>
      <trkpt lat="46.50604" lon="5.98144">
        <ele>913</ele>
        <time>2021-07-06T18:39:01Z</time>
      </trkpt>
      <trkpt lat="46.50587" lon="5.98116">
        <ele>913</ele>
        <time>2021-07-06T18:39:21Z</time>
      </trkpt>
      <trkpt lat="46.50556" lon="5.98094">
        <ele>913</ele>
        <time>2021-07-06T18:39:49Z</time>
      </trkpt>
      <trkpt lat="46.50532" lon="5.98069">
        <ele>914</ele>
        <time>2021-07-06T18:40:13Z</time>
      </trkpt>
      <trkpt lat="46.50457" lon="5.98">
        <ele>916</ele>
        <time>2021-07-06T18:41:24Z</time>
      </trkpt>
      <trkpt lat="46.50463" lon="5.97978">
        <ele>916</ele>
        <time>2021-07-06T18:41:37Z</time>
      </trkpt>
      <trkpt lat="46.50463" lon="5.97965">
        <ele>917</ele>
        <time>2021-07-06T18:41:44Z</time>
      </trkpt>
      <trkpt lat="46.50457" lon="5.97951">
        <ele>918</ele>
        <time>2021-07-06T18:41:53Z</time>
      </trkpt>
      <trkpt lat="46.50443" lon="5.97931">
        <ele>918</ele>
        <time>2021-07-06T18:42:09Z</time>
      </trkpt>
      <trkpt lat="46.50436" lon="5.97915">
        <ele>919</ele>
        <time>2021-07-06T18:42:19Z</time>
      </trkpt>
      <trkpt lat="46.50433" lon="5.979">
        <ele>918</ele>
        <time>2021-07-06T18:42:28Z</time>
      </trkpt>
      <trkpt lat="46.5043" lon="5.97859">
        <ele>918</ele>
        <time>2021-07-06T18:42:51Z</time>
      </trkpt>
      <trkpt lat="46.5043" lon="5.97794">
        <ele>916</ele>
        <time>2021-07-06T18:43:26Z</time>
      </trkpt>
      <trkpt lat="46.50455" lon="5.97706">
        <ele>911</ele>
        <time>2021-07-06T18:44:19Z</time>
      </trkpt>
      <trkpt lat="46.50461" lon="5.97675">
        <ele>909</ele>
        <time>2021-07-06T18:44:37Z</time>
      </trkpt>
      <trkpt lat="46.50458" lon="5.97613">
        <ele>908</ele>
        <time>2021-07-06T18:45:11Z</time>
      </trkpt>
      <trkpt lat="46.50446" lon="5.97559">
        <ele>907</ele>
        <time>2021-07-06T18:45:42Z</time>
      </trkpt>
      <trkpt lat="46.50434" lon="5.97482">
        <ele>901</ele>
        <time>2021-07-06T18:46:26Z</time>
      </trkpt>
      <trkpt lat="46.50437" lon="5.97478">
        <ele>899</ele>
        <time>2021-07-06T18:46:29Z</time>
      </trkpt>
      <trkpt lat="46.50461" lon="5.97472">
        <ele>896</ele>
        <time>2021-07-06T18:46:48Z</time>
      </trkpt>
      <trkpt lat="46.50474" lon="5.97466">
        <ele>893</ele>
        <time>2021-07-06T18:46:59Z</time>
      </trkpt>
      <trkpt lat="46.50527" lon="5.97429">
        <ele>884</ele>
        <time>2021-07-06T18:47:46Z</time>
      </trkpt>
      <trkpt lat="46.50549" lon="5.97408">
        <ele>881</ele>
        <time>2021-07-06T18:48:08Z</time>
      </trkpt>
      <trkpt lat="46.50597" lon="5.97334">
        <ele>875</ele>
        <time>2021-07-06T18:49:04Z</time>
      </trkpt>
      <trkpt lat="46.50611" lon="5.97309">
        <ele>874</ele>
        <time>2021-07-06T18:49:21Z</time>
      </trkpt>
      <trkpt lat="46.50621" lon="5.97274">
        <ele>873</ele>
        <time>2021-07-06T18:49:42Z</time>
      </trkpt>
      <trkpt lat="46.50623" lon="5.97248">
        <ele>873</ele>
        <time>2021-07-06T18:49:57Z</time>
      </trkpt>
      <trkpt lat="46.50626" lon="5.97239">
        <ele>873</ele>
        <time>2021-07-06T18:50:02Z</time>
      </trkpt>
      <trkpt lat="46.50637" lon="5.97219">
        <ele>872</ele>
        <time>2021-07-06T18:50:16Z</time>
      </trkpt>
      <trkpt lat="46.50662" lon="5.9719">
        <ele>871</ele>
        <time>2021-07-06T18:50:42Z</time>
      </trkpt>
      <trkpt lat="46.50676" lon="5.97165">
        <ele>870</ele>
        <time>2021-07-06T18:51:00Z</time>
      </trkpt>
      <trkpt lat="46.50709" lon="5.97133">
        <ele>870</ele>
        <time>2021-07-06T18:51:31Z</time>
      </trkpt>
      <trkpt lat="46.50718" lon="5.9708">
        <ele>869</ele>
        <time>2021-07-06T18:52:01Z</time>
      </trkpt>
      <trkpt lat="46.50718" lon="5.97054">
        <ele>868</ele>
        <time>2021-07-06T18:52:16Z</time>
      </trkpt>
      <trkpt lat="46.5072" lon="5.97003">
        <ele>866</ele>
        <time>2021-07-06T18:52:44Z</time>
      </trkpt>
      <trkpt lat="46.50731" lon="5.96988">
        <ele>865</ele>
        <time>2021-07-06T18:52:56Z</time>
      </trkpt>
      <trkpt lat="46.50746" lon="5.96962">
        <ele>863</ele>
        <time>2021-07-06T18:53:15Z</time>
      </trkpt>
      <trkpt lat="46.50751" lon="5.96944">
        <ele>861</ele>
        <time>2021-07-06T18:53:25Z</time>
      </trkpt>
      <trkpt lat="46.50756" lon="5.96901">
        <ele>857</ele>
        <time>2021-07-06T18:53:49Z</time>
      </trkpt>
      <trkpt lat="46.50749" lon="5.96869">
        <ele>855</ele>
        <time>2021-07-06T18:54:08Z</time>
      </trkpt>
      <trkpt lat="46.50751" lon="5.96839">
        <ele>851</ele>
        <time>2021-07-06T18:54:25Z</time>
      </trkpt>
      <trkpt lat="46.50761" lon="5.96836">
        <ele>848</ele>
        <time>2021-07-06T18:54:33Z</time>
      </trkpt>
      <trkpt lat="46.50776" lon="5.96847">
        <ele>845</ele>
        <time>2021-07-06T18:54:46Z</time>
      </trkpt>
      <trkpt lat="46.50803" lon="5.96887">
        <ele>843</ele>
        <time>2021-07-06T18:55:17Z</time>
      </trkpt>
      <trkpt lat="46.50817" lon="5.96932">
        <ele>845</ele>
        <time>2021-07-06T18:55:44Z</time>
      </trkpt>
      <trkpt lat="46.50831" lon="5.9695">
        <ele>843</ele>
        <time>2021-07-06T18:55:59Z</time>
      </trkpt>
      <trkpt lat="46.50847" lon="5.9698">
        <ele>840</ele>
        <time>2021-07-06T18:56:20Z</time>
      </trkpt>
      <trkpt lat="46.50864" lon="5.96993">
        <ele>834</ele>
        <time>2021-07-06T18:56:36Z</time>
      </trkpt>
      <trkpt lat="46.50876" lon="5.97008">
        <ele>831</ele>
        <time>2021-07-06T18:56:48Z</time>
      </trkpt>
      <trkpt lat="46.50903" lon="5.97123">
        <ele>823</ele>
        <time>2021-07-06T18:57:55Z</time>
      </trkpt>
      <trkpt lat="46.50916" lon="5.97113">
        <ele>818</ele>
        <time>2021-07-06T18:58:07Z</time>
      </trkpt>
      <trkpt lat="46.50945" lon="5.97029">
        <ele>808</ele>
        <time>2021-07-06T18:58:59Z</time>
      </trkpt>
      <trkpt lat="46.50945" lon="5.96961">
        <ele>804</ele>
        <time>2021-07-06T18:59:36Z</time>
      </trkpt>
      <trkpt lat="46.5094" lon="5.9694">
        <ele>804</ele>
        <time>2021-07-06T18:59:48Z</time>
      </trkpt>
      <trkpt lat="46.50916" lon="5.96847">
        <ele>793</ele>
        <time>2021-07-06T19:00:43Z</time>
      </trkpt>
      <trkpt lat="46.50889" lon="5.96759">
        <ele>789</ele>
        <time>2021-07-06T19:01:36Z</time>
      </trkpt>
      <trkpt lat="46.50855" lon="5.96692">
        <ele>785</ele>
        <time>2021-07-06T19:02:22Z</time>
      </trkpt>
      <trkpt lat="46.50816" lon="5.96634">
        <ele>779</ele>
        <time>2021-07-06T19:03:07Z</time>
      </trkpt>
      <trkpt lat="46.50803" lon="5.96572">
        <ele>763</ele>
        <time>2021-07-06T19:03:43Z</time>
      </trkpt>
      <trkpt lat="46.50804" lon="5.96558">
        <ele>758</ele>
        <time>2021-07-06T19:03:50Z</time>
      </trkpt>
      <trkpt lat="46.50838" lon="5.96545">
        <ele>747</ele>
        <time>2021-07-06T19:04:18Z</time>
      </trkpt>
      <trkpt lat="46.50885" lon="5.96558">
        <ele>737</ele>
        <time>2021-07-06T19:04:57Z</time>
      </trkpt>
      <trkpt lat="46.50916" lon="5.96571">
        <ele>731</ele>
        <time>2021-07-06T19:05:23Z</time>
      </trkpt>
      <trkpt lat="46.5095" lon="5.9661">
        <ele>725</ele>
        <time>2021-07-06T19:05:57Z</time>
      </trkpt>
      <trkpt lat="46.50962" lon="5.96613">
        <ele>720</ele>
        <time>2021-07-06T19:06:07Z</time>
      </trkpt>
      <trkpt lat="46.50997" lon="5.96658">
        <ele>719</ele>
        <time>2021-07-06T19:06:44Z</time>
      </trkpt>
      <trkpt lat="46.51072" lon="5.96712">
        <ele>695</ele>
        <time>2021-07-06T19:07:51Z</time>
      </trkpt>
      <trkpt lat="46.51102" lon="5.96746">
        <ele>691</ele>
        <time>2021-07-06T19:08:22Z</time>
      </trkpt>
      <trkpt lat="46.51138" lon="5.96774">
        <ele>680</ele>
        <time>2021-07-06T19:08:55Z</time>
      </trkpt>
      <trkpt lat="46.51161" lon="5.96804">
        <ele>678</ele>
        <time>2021-07-06T19:09:19Z</time>
      </trkpt>
      <trkpt lat="46.51171" lon="5.96804">
        <ele>673</ele>
        <time>2021-07-06T19:09:27Z</time>
      </trkpt>
      <trkpt lat="46.5119" lon="5.96823">
        <ele>672</ele>
        <time>2021-07-06T19:09:46Z</time>
      </trkpt>
      <trkpt lat="46.51213" lon="5.96836">
        <ele>665</ele>
        <time>2021-07-06T19:10:06Z</time>
      </trkpt>
      <trkpt lat="46.51225" lon="5.96833">
        <ele>659</ele>
        <time>2021-07-06T19:10:15Z</time>
      </trkpt>
      <trkpt lat="46.51208" lon="5.96765">
        <ele>651</ele>
        <time>2021-07-06T19:10:55Z</time>
      </trkpt>
      <trkpt lat="46.51141" lon="5.9667">
        <ele>644</ele>
        <time>2021-07-06T19:12:10Z</time>
      </trkpt>
      <trkpt lat="46.51137" lon="5.96649">
        <ele>646</ele>
        <time>2021-07-06T19:12:22Z</time>
      </trkpt>
      <trkpt lat="46.51148" lon="5.96625">
        <ele>644</ele>
        <time>2021-07-06T19:12:38Z</time>
      </trkpt>
      <trkpt lat="46.51153" lon="5.96617">
        <ele>645</ele>
        <time>2021-07-06T19:12:44Z</time>
      </trkpt>
      <trkpt lat="46.51168" lon="5.96628">
        <ele>641</ele>
        <time>2021-07-06T19:12:57Z</time>
      </trkpt>
      <trkpt lat="46.51189" lon="5.96635">
        <ele>645</ele>
        <time>2021-07-06T19:13:15Z</time>
      </trkpt>
      <trkpt lat="46.51212" lon="5.96637">
        <ele>651</ele>
        <time>2021-07-06T19:13:33Z</time>
      </trkpt>
      <trkpt lat="46.51239" lon="5.96652">
        <ele>654</ele>
        <time>2021-07-06T19:13:56Z</time>
      </trkpt>
      <trkpt lat="46.51247" lon="5.96662">
        <ele>652</ele>
        <time>2021-07-06T19:14:05Z</time>
      </trkpt>
      <trkpt lat="46.51263" lon="5.96676">
        <ele>656</ele>
        <time>2021-07-06T19:14:20Z</time>
      </trkpt>
      <trkpt lat="46.51274" lon="5.96691">
        <ele>659</ele>
        <time>2021-07-06T19:14:32Z</time>
      </trkpt>
      <trkpt lat="46.51318" lon="5.96718">
        <ele>672</ele>
        <time>2021-07-06T19:15:10Z</time>
      </trkpt>
      <trkpt lat="46.51344" lon="5.96758">
        <ele>674</ele>
        <time>2021-07-06T19:15:40Z</time>
      </trkpt>
      <trkpt lat="46.51414" lon="5.96991">
        <ele>697</ele>
        <time>2021-07-06T19:18:00Z</time>
      </trkpt>
      <trkpt lat="46.51419" lon="5.97">
        <ele>699</ele>
        <time>2021-07-06T19:18:07Z</time>
      </trkpt>
      <trkpt lat="46.51423" lon="5.97005">
        <ele>699</ele>
        <time>2021-07-06T19:18:11Z</time>
      </trkpt>
      <trkpt lat="46.51419" lon="5.96991">
        <ele>699</ele>
        <time>2021-07-06T19:18:19Z</time>
      </trkpt>
      <trkpt lat="46.51417" lon="5.96978">
        <ele>698</ele>
        <time>2021-07-06T19:18:27Z</time>
      </trkpt>
      <trkpt lat="46.51413" lon="5.96892">
        <ele>699</ele>
        <time>2021-07-06T19:19:14Z</time>
      </trkpt>
      <trkpt lat="46.51414" lon="5.96887">
        <ele>700</ele>
        <time>2021-07-06T19:19:17Z</time>
      </trkpt>
      <trkpt lat="46.51417" lon="5.96883">
        <ele>702</ele>
        <time>2021-07-06T19:19:20Z</time>
      </trkpt>
      <trkpt lat="46.51419" lon="5.96883">
        <ele>703</ele>
        <time>2021-07-06T19:19:22Z</time>
      </trkpt>
      <trkpt lat="46.51421" lon="5.96884">
        <ele>704</ele>
        <time>2021-07-06T19:19:24Z</time>
      </trkpt>
      <trkpt lat="46.51426" lon="5.96888">
        <ele>706</ele>
        <time>2021-07-06T19:19:28Z</time>
      </trkpt>
      <trkpt lat="46.51427" lon="5.96895">
        <ele>705</ele>
        <time>2021-07-06T19:19:32Z</time>
      </trkpt>
      <trkpt lat="46.51429" lon="5.96936">
        <ele>704</ele>
        <time>2021-07-06T19:19:55Z</time>
      </trkpt>
      <trkpt lat="46.51433" lon="5.96976">
        <ele>704</ele>
        <time>2021-07-06T19:20:17Z</time>
      </trkpt>
      <trkpt lat="46.51437" lon="5.96986">
        <ele>705</ele>
        <time>2021-07-06T19:20:23Z</time>
      </trkpt>
      <trkpt lat="46.51442" lon="5.96993">
        <ele>706</ele>
        <time>2021-07-06T19:20:29Z</time>
      </trkpt>
      <trkpt lat="46.51447" lon="5.96996">
        <ele>708</ele>
        <time>2021-07-06T19:20:33Z</time>
      </trkpt>
      <trkpt lat="46.51454" lon="5.96997">
        <ele>710</ele>
        <time>2021-07-06T19:20:39Z</time>
      </trkpt>
      <trkpt lat="46.51469" lon="5.96989">
        <ele>716</ele>
        <time>2021-07-06T19:20:52Z</time>
      </trkpt>
      <trkpt lat="46.51494" lon="5.96989">
        <ele>724</ele>
        <time>2021-07-06T19:21:12Z</time>
      </trkpt>
      <trkpt lat="46.515" lon="5.96986">
        <ele>726</ele>
        <time>2021-07-06T19:21:17Z</time>
      </trkpt>
      <trkpt lat="46.51515" lon="5.96972">
        <ele>733</ele>
        <time>2021-07-06T19:21:31Z</time>
      </trkpt>
      <trkpt lat="46.5152" lon="5.9697">
        <ele>734</ele>
        <time>2021-07-06T19:21:35Z</time>
      </trkpt>
      <trkpt lat="46.51525" lon="5.9697">
        <ele>736</ele>
        <time>2021-07-06T19:21:39Z</time>
      </trkpt>
      <trkpt lat="46.51531" lon="5.96959">
        <ele>738</ele>
        <time>2021-07-06T19:21:47Z</time>
      </trkpt>
      <trkpt lat="46.51532" lon="5.96952">
        <ele>739</ele>
        <time>2021-07-06T19:21:51Z</time>
      </trkpt>
      <trkpt lat="46.51527" lon="5.96947">
        <ele>738</ele>
        <time>2021-07-06T19:21:56Z</time>
      </trkpt>
      <trkpt lat="46.51515" lon="5.96947">
        <ele>734</ele>
        <time>2021-07-06T19:22:05Z</time>
      </trkpt>
      <trkpt lat="46.51533" lon="5.96918">
        <ele>741</ele>
        <time>2021-07-06T19:22:27Z</time>
      </trkpt>
      <trkpt lat="46.51548" lon="5.96898">
        <ele>746</ele>
        <time>2021-07-06T19:22:43Z</time>
      </trkpt>
      <trkpt lat="46.51562" lon="5.96876">
        <ele>751</ele>
        <time>2021-07-06T19:23:00Z</time>
      </trkpt>
      <trkpt lat="46.51568" lon="5.9688">
        <ele>752</ele>
        <time>2021-07-06T19:23:05Z</time>
      </trkpt>
      <trkpt lat="46.51574" lon="5.96867">
        <ele>755</ele>
        <time>2021-07-06T19:23:14Z</time>
      </trkpt>
      <trkpt lat="46.51579" lon="5.96867">
        <ele>756</ele>
        <time>2021-07-06T19:23:18Z</time>
      </trkpt>
      <trkpt lat="46.51587" lon="5.96862">
        <ele>759</ele>
        <time>2021-07-06T19:23:25Z</time>
      </trkpt>
      <trkpt lat="46.51589" lon="5.96855">
        <ele>760</ele>
        <time>2021-07-06T19:23:29Z</time>
      </trkpt>
      <trkpt lat="46.516" lon="5.96853">
        <ele>765</ele>
        <time>2021-07-06T19:23:38Z</time>
      </trkpt>
      <trkpt lat="46.51603" lon="5.96849">
        <ele>767</ele>
        <time>2021-07-06T19:23:41Z</time>
      </trkpt>
      <trkpt lat="46.51611" lon="5.96851">
        <ele>770</ele>
        <time>2021-07-06T19:23:47Z</time>
      </trkpt>
      <trkpt lat="46.51619" lon="5.96855">
        <ele>773</ele>
        <time>2021-07-06T19:23:54Z</time>
      </trkpt>
      <trkpt lat="46.51628" lon="5.96848">
        <ele>777</ele>
        <time>2021-07-06T19:24:02Z</time>
      </trkpt>
      <trkpt lat="46.51631" lon="5.96861">
        <ele>778</ele>
        <time>2021-07-06T19:24:10Z</time>
      </trkpt>
      <trkpt lat="46.51647" lon="5.96869">
        <ele>785</ele>
        <time>2021-07-06T19:24:24Z</time>
      </trkpt>
      <trkpt lat="46.51664" lon="5.96892">
        <ele>793</ele>
        <time>2021-07-06T19:24:42Z</time>
      </trkpt>
      <trkpt lat="46.5167" lon="5.96895">
        <ele>795</ele>
        <time>2021-07-06T19:24:47Z</time>
      </trkpt>
      <trkpt lat="46.51678" lon="5.96904">
        <ele>798</ele>
        <time>2021-07-06T19:24:55Z</time>
      </trkpt>
      <trkpt lat="46.51684" lon="5.96925">
        <ele>800</ele>
        <time>2021-07-06T19:25:08Z</time>
      </trkpt>
      <trkpt lat="46.51681" lon="5.96951">
        <ele>799</ele>
        <time>2021-07-06T19:25:22Z</time>
      </trkpt>
      <trkpt lat="46.51683" lon="5.96965">
        <ele>800</ele>
        <time>2021-07-06T19:25:30Z</time>
      </trkpt>
      <trkpt lat="46.51687" lon="5.96973">
        <ele>801</ele>
        <time>2021-07-06T19:25:36Z</time>
      </trkpt>
      <trkpt lat="46.51707" lon="5.97045">
        <ele>806</ele>
        <time>2021-07-06T19:26:18Z</time>
      </trkpt>
      <trkpt lat="46.51731" lon="5.97087">
        <ele>811</ele>
        <time>2021-07-06T19:26:49Z</time>
      </trkpt>
      <trkpt lat="46.51781" lon="5.97148">
        <ele>820</ele>
        <time>2021-07-06T19:27:41Z</time>
      </trkpt>
      <trkpt lat="46.51798" lon="5.97156">
        <ele>824</ele>
        <time>2021-07-06T19:27:55Z</time>
      </trkpt>
      <trkpt lat="46.51805" lon="5.97151">
        <ele>826</ele>
        <time>2021-07-06T19:28:01Z</time>
      </trkpt>
      <trkpt lat="46.51809" lon="5.97143">
        <ele>828</ele>
        <time>2021-07-06T19:28:07Z</time>
      </trkpt>
      <trkpt lat="46.51812" lon="5.9713">
        <ele>830</ele>
        <time>2021-07-06T19:28:14Z</time>
      </trkpt>
      <trkpt lat="46.51809" lon="5.97107">
        <ele>831</ele>
        <time>2021-07-06T19:28:27Z</time>
      </trkpt>
      <trkpt lat="46.51784" lon="5.97039">
        <ele>830</ele>
        <time>2021-07-06T19:29:10Z</time>
      </trkpt>
      <trkpt lat="46.51765" lon="5.96978">
        <ele>828</ele>
        <time>2021-07-06T19:29:47Z</time>
      </trkpt>
      <trkpt lat="46.51765" lon="5.96959">
        <ele>829</ele>
        <time>2021-07-06T19:29:57Z</time>
      </trkpt>
      <trkpt lat="46.5177" lon="5.96945">
        <ele>831</ele>
        <time>2021-07-06T19:30:06Z</time>
      </trkpt>
      <trkpt lat="46.5178" lon="5.96939">
        <ele>834</ele>
        <time>2021-07-06T19:30:14Z</time>
      </trkpt>
      <trkpt lat="46.51786" lon="5.96941">
        <ele>836</ele>
        <time>2021-07-06T19:30:19Z</time>
      </trkpt>
      <trkpt lat="46.51795" lon="5.96947">
        <ele>838</ele>
        <time>2021-07-06T19:30:27Z</time>
      </trkpt>
      <trkpt lat="46.51809" lon="5.96968">
        <ele>841</ele>
        <time>2021-07-06T19:30:43Z</time>
      </trkpt>
      <trkpt lat="46.51826" lon="5.97">
        <ele>841</ele>
        <time>2021-07-06T19:31:06Z</time>
      </trkpt>
      <trkpt lat="46.51851" lon="5.97064">
        <ele>846</ele>
        <time>2021-07-06T19:31:46Z</time>
      </trkpt>
      <trkpt lat="46.51871" lon="5.97103">
        <ele>848</ele>
        <time>2021-07-06T19:32:13Z</time>
      </trkpt>
      <trkpt lat="46.51905" lon="5.97192">
        <ele>850</ele>
        <time>2021-07-06T19:33:09Z</time>
      </trkpt>
      <trkpt lat="46.51941" lon="5.97273">
        <ele>855</ele>
        <time>2021-07-06T19:34:02Z</time>
      </trkpt>
      <trkpt lat="46.51977" lon="5.97316">
        <ele>861</ele>
        <time>2021-07-06T19:34:40Z</time>
      </trkpt>
      <trkpt lat="46.5199" lon="5.97343">
        <ele>861</ele>
        <time>2021-07-06T19:34:58Z</time>
      </trkpt>
      <trkpt lat="46.52002" lon="5.97353">
        <ele>863</ele>
        <time>2021-07-06T19:35:09Z</time>
      </trkpt>
      <trkpt lat="46.52026" lon="5.9738">
        <ele>863</ele>
        <time>2021-07-06T19:35:33Z</time>
      </trkpt>
      <trkpt lat="46.52074" lon="5.97449">
        <ele>868</ele>
        <time>2021-07-06T19:36:27Z</time>
      </trkpt>
      <trkpt lat="46.52143" lon="5.97514">
        <ele>879</ele>
        <time>2021-07-06T19:37:33Z</time>
      </trkpt>
      <trkpt lat="46.52174" lon="5.97538">
        <ele>886</ele>
        <time>2021-07-06T19:38:01Z</time>
      </trkpt>
      <trkpt lat="46.52202" lon="5.97567">
        <ele>889</ele>
        <time>2021-07-06T19:38:29Z</time>
      </trkpt>
      <trkpt lat="46.52227" lon="5.9761">
        <ele>890</ele>
        <time>2021-07-06T19:39:00Z</time>
      </trkpt>
      <trkpt lat="46.52239" lon="5.97629">
        <ele>891</ele>
        <time>2021-07-06T19:39:14Z</time>
      </trkpt>
      <trkpt lat="46.52263" lon="5.97652">
        <ele>894</ele>
        <time>2021-07-06T19:39:37Z</time>
      </trkpt>
      <trkpt lat="46.5227" lon="5.97675">
        <ele>894</ele>
        <time>2021-07-06T19:39:51Z</time>
      </trkpt>
      <trkpt lat="46.5229" lon="5.97717">
        <ele>894</ele>
        <time>2021-07-06T19:40:19Z</time>
      </trkpt>
      <trkpt lat="46.52333" lon="5.9778">
        <ele>895</ele>
        <time>2021-07-06T19:41:08Z</time>
      </trkpt>
      <trkpt lat="46.5236" lon="5.9781">
        <ele>896</ele>
        <time>2021-07-06T19:41:35Z</time>
      </trkpt>
      <trkpt lat="46.52385" lon="5.97833">
        <ele>895</ele>
        <time>2021-07-06T19:41:59Z</time>
      </trkpt>
      <trkpt lat="46.52437" lon="5.97861">
        <ele>895</ele>
        <time>2021-07-06T19:42:43Z</time>
      </trkpt>
      <trkpt lat="46.52448" lon="5.97871">
        <ele>895</ele>
        <time>2021-07-06T19:42:53Z</time>
      </trkpt>
      <trkpt lat="46.52461" lon="5.97863">
        <ele>899</ele>
        <time>2021-07-06T19:43:05Z</time>
      </trkpt>
      <trkpt lat="46.52466" lon="5.97855">
        <ele>901</ele>
        <time>2021-07-06T19:43:11Z</time>
      </trkpt>
      <trkpt lat="46.52459" lon="5.9784">
        <ele>902</ele>
        <time>2021-07-06T19:43:21Z</time>
      </trkpt>
      <trkpt lat="46.52443" lon="5.97819">
        <ele>904</ele>
        <time>2021-07-06T19:43:38Z</time>
      </trkpt>
      <trkpt lat="46.52415" lon="5.97789">
        <ele>907</ele>
        <time>2021-07-06T19:44:06Z</time>
      </trkpt>
      <trkpt lat="46.52405" lon="5.97768">
        <ele>910</ele>
        <time>2021-07-06T19:44:20Z</time>
      </trkpt>
      <trkpt lat="46.52383" lon="5.97701">
        <ele>918</ele>
        <time>2021-07-06T19:45:01Z</time>
      </trkpt>
      <trkpt lat="46.52349" lon="5.97617">
        <ele>923</ele>
        <time>2021-07-06T19:45:54Z</time>
      </trkpt>
      <trkpt lat="46.52327" lon="5.97572">
        <ele>924</ele>
        <time>2021-07-06T19:46:25Z</time>
      </trkpt>
      <trkpt lat="46.52219" lon="5.97295">
        <ele>941</ele>
        <time>2021-07-06T19:49:20Z</time>
      </trkpt>
      <trkpt lat="46.5218" lon="5.97216">
        <ele>943</ele>
        <time>2021-07-06T19:50:14Z</time>
      </trkpt>
      <trkpt lat="46.52175" lon="5.97199">
        <ele>945</ele>
        <time>2021-07-06T19:50:24Z</time>
      </trkpt>
      <trkpt lat="46.52167" lon="5.97197">
        <ele>942</ele>
        <time>2021-07-06T19:50:31Z</time>
      </trkpt>
      <trkpt lat="46.52153" lon="5.97181">
        <ele>939</ele>
        <time>2021-07-06T19:50:45Z</time>
      </trkpt>
      <trkpt lat="46.52075" lon="5.97081">
        <ele>929</ele>
        <time>2021-07-06T19:52:08Z</time>
      </trkpt>
      <trkpt lat="46.52037" lon="5.97015">
        <ele>923</ele>
        <time>2021-07-06T19:52:56Z</time>
      </trkpt>
      <trkpt lat="46.5203" lon="5.97008">
        <ele>921</ele>
        <time>2021-07-06T19:53:02Z</time>
      </trkpt>
      <trkpt lat="46.51896" lon="5.96432">
        <ele>987</ele>
        <time>2021-07-06T19:58:37Z</time>
      </trkpt>
      <trkpt lat="46.51891" lon="5.96381">
        <ele>994</ele>
        <time>2021-07-06T19:59:06Z</time>
      </trkpt>
      <trkpt lat="46.51895" lon="5.96369">
        <ele>998</ele>
        <time>2021-07-06T19:59:13Z</time>
      </trkpt>
      <trkpt lat="46.51868" lon="5.96308">
        <ele>1002</ele>
        <time>2021-07-06T19:59:53Z</time>
      </trkpt>
      <trkpt lat="46.51864" lon="5.96291">
        <ele>1004</ele>
        <time>2021-07-06T20:00:03Z</time>
      </trkpt>
      <trkpt lat="46.51861" lon="5.96272">
        <ele>1007</ele>
        <time>2021-07-06T20:00:14Z</time>
      </trkpt>
      <trkpt lat="46.51862" lon="5.96223">
        <ele>1012</ele>
        <time>2021-07-06T20:00:41Z</time>
      </trkpt>
      <trkpt lat="46.51844" lon="5.96164">
        <ele>1012</ele>
        <time>2021-07-06T20:01:16Z</time>
      </trkpt>
      <trkpt lat="46.51823" lon="5.96072">
        <ele>1018</ele>
        <time>2021-07-06T20:02:10Z</time>
      </trkpt>
      <trkpt lat="46.51769" lon="5.95908">
        <ele>1023</ele>
        <time>2021-07-06T20:03:50Z</time>
      </trkpt>
      <trkpt lat="46.51745" lon="5.95847">
        <ele>1024</ele>
        <time>2021-07-06T20:04:29Z</time>
      </trkpt>
      <trkpt lat="46.51737" lon="5.95763">
        <ele>1028</ele>
        <time>2021-07-06T20:05:15Z</time>
      </trkpt>
      <trkpt lat="46.51741" lon="5.95687">
        <ele>1031</ele>
        <time>2021-07-06T20:05:57Z</time>
      </trkpt>
      <trkpt lat="46.51732" lon="5.95646">
        <ele>1032</ele>
        <time>2021-07-06T20:06:21Z</time>
      </trkpt>
      <trkpt lat="46.5172" lon="5.95633">
        <ele>1031</ele>
        <time>2021-07-06T20:06:33Z</time>
      </trkpt>
      <trkpt lat="46.51696" lon="5.95612">
        <ele>1030</ele>
        <time>2021-07-06T20:06:55Z</time>
      </trkpt>
      <trkpt lat="46.5159" lon="5.95536">
        <ele>1024</ele>
        <time>2021-07-06T20:08:30Z</time>
      </trkpt>
      <trkpt lat="46.51566" lon="5.95485">
        <ele>1025</ele>
        <time>2021-07-06T20:09:04Z</time>
      </trkpt>
      <trkpt lat="46.51519" lon="5.95394">
        <ele>1026</ele>
        <time>2021-07-06T20:10:07Z</time>
      </trkpt>
      <trkpt lat="46.51484" lon="5.95338">
        <ele>1029</ele>
        <time>2021-07-06T20:10:48Z</time>
      </trkpt>
      <trkpt lat="46.51458" lon="5.95303">
        <ele>1030</ele>
        <time>2021-07-06T20:11:17Z</time>
      </trkpt>
      <trkpt lat="46.51424" lon="5.95247">
        <ele>1031</ele>
        <time>2021-07-06T20:11:58Z</time>
      </trkpt>
      <trkpt lat="46.51401" lon="5.95195">
        <ele>1030</ele>
        <time>2021-07-06T20:12:32Z</time>
      </trkpt>
      <trkpt lat="46.51332" lon="5.95088">
        <ele>1021</ele>
        <time>2021-07-06T20:13:53Z</time>
      </trkpt>
      <trkpt lat="46.513" lon="5.95025">
        <ele>1020</ele>
        <time>2021-07-06T20:14:36Z</time>
      </trkpt>
      <trkpt lat="46.51281" lon="5.94991">
        <ele>1019</ele>
        <time>2021-07-06T20:15:00Z</time>
      </trkpt>
      <trkpt lat="46.51242" lon="5.94956">
        <ele>1017</ele>
        <time>2021-07-06T20:15:37Z</time>
      </trkpt>
      <trkpt lat="46.51199" lon="5.94887">
        <ele>1020</ele>
        <time>2021-07-06T20:16:28Z</time>
      </trkpt>
      <trkpt lat="46.51151" lon="5.94837">
        <ele>1020</ele>
        <time>2021-07-06T20:17:15Z</time>
      </trkpt>
      <trkpt lat="46.51113" lon="5.94804">
        <ele>1017</ele>
        <time>2021-07-06T20:17:51Z</time>
      </trkpt>
      <trkpt lat="46.51093" lon="5.94781">
        <ele>1016</ele>
        <time>2021-07-06T20:18:11Z</time>
      </trkpt>
      <trkpt lat="46.51032" lon="5.9468">
        <ele>1015</ele>
        <time>2021-07-06T20:19:25Z</time>
      </trkpt>
      <trkpt lat="46.5098" lon="5.94602">
        <ele>1013</ele>
        <time>2021-07-06T20:20:25Z</time>
      </trkpt>
      <trkpt lat="46.50956" lon="5.94563">
        <ele>1012</ele>
        <time>2021-07-06T20:20:54Z</time>
      </trkpt>
      <trkpt lat="46.50916" lon="5.94527">
        <ele>1008</ele>
        <time>2021-07-06T20:21:32Z</time>
      </trkpt>
      <trkpt lat="46.50886" lon="5.94506">
        <ele>1001</ele>
        <time>2021-07-06T20:21:58Z</time>
      </trkpt>
      <trkpt lat="46.5084" lon="5.94421">
        <ele>997</ele>
        <time>2021-07-06T20:22:58Z</time>
      </trkpt>
      <trkpt lat="46.50801" lon="5.94345">
        <ele>989</ele>
        <time>2021-07-06T20:23:50Z</time>
      </trkpt>
      <trkpt lat="46.50791" lon="5.94308">
        <ele>988</ele>
        <time>2021-07-06T20:24:12Z</time>
      </trkpt>
      <trkpt lat="46.50779" lon="5.94235">
        <ele>988</ele>
        <time>2021-07-06T20:24:53Z</time>
      </trkpt>
      <trkpt lat="46.50779" lon="5.94173">
        <ele>987</ele>
        <time>2021-07-06T20:25:28Z</time>
      </trkpt>
      <trkpt lat="46.5077" lon="5.94154">
        <ele>984</ele>
        <time>2021-07-06T20:25:40Z</time>
      </trkpt>
      <trkpt lat="46.50752" lon="5.94137">
        <ele>980</ele>
        <time>2021-07-06T20:25:57Z</time>
      </trkpt>
      <trkpt lat="46.50737" lon="5.94115">
        <ele>976</ele>
        <time>2021-07-06T20:26:14Z</time>
      </trkpt>
      <trkpt lat="46.50739" lon="5.94088">
        <ele>975</ele>
        <time>2021-07-06T20:26:29Z</time>
      </trkpt>
      <trkpt lat="46.50763" lon="5.9405">
        <ele>975</ele>
        <time>2021-07-06T20:26:58Z</time>
      </trkpt>
      <trkpt lat="46.50776" lon="5.94021">
        <ele>973</ele>
        <time>2021-07-06T20:27:17Z</time>
      </trkpt>
      <trkpt lat="46.50788" lon="5.9397">
        <ele>969</ele>
        <time>2021-07-06T20:27:47Z</time>
      </trkpt>
      <trkpt lat="46.50793" lon="5.93854">
        <ele>959</ele>
        <time>2021-07-06T20:28:51Z</time>
      </trkpt>
      <trkpt lat="46.50825" lon="5.93747">
        <ele>958</ele>
        <time>2021-07-06T20:29:55Z</time>
      </trkpt>
      <trkpt lat="46.50838" lon="5.93718">
        <ele>957</ele>
        <time>2021-07-06T20:30:14Z</time>
      </trkpt>
      <trkpt lat="46.50873" lon="5.93681">
        <ele>957</ele>
        <time>2021-07-06T20:30:49Z</time>
      </trkpt>
      <trkpt lat="46.50903" lon="5.93644">
        <ele>954</ele>
        <time>2021-07-06T20:31:20Z</time>
      </trkpt>
      <trkpt lat="46.50942" lon="5.93613">
        <ele>953</ele>
        <time>2021-07-06T20:31:56Z</time>
      </trkpt>
      <trkpt lat="46.50972" lon="5.93572">
        <ele>951</ele>
        <time>2021-07-06T20:32:29Z</time>
      </trkpt>
      <trkpt lat="46.50985" lon="5.93532">
        <ele>948</ele>
        <time>2021-07-06T20:32:53Z</time>
      </trkpt>
      <trkpt lat="46.50993" lon="5.93469">
        <ele>943</ele>
        <time>2021-07-06T20:33:28Z</time>
      </trkpt>
      <trkpt lat="46.50998" lon="5.93437">
        <ele>943</ele>
        <time>2021-07-06T20:33:47Z</time>
      </trkpt>
      <trkpt lat="46.5101" lon="5.93394">
        <ele>944</ele>
        <time>2021-07-06T20:34:12Z</time>
      </trkpt>
      <trkpt lat="46.51057" lon="5.93252">
        <ele>943</ele>
        <time>2021-07-06T20:35:39Z</time>
      </trkpt>
      <trkpt lat="46.5106" lon="5.93224">
        <ele>942</ele>
        <time>2021-07-06T20:35:55Z</time>
      </trkpt>
      <trkpt lat="46.5105" lon="5.93204">
        <ele>940</ele>
        <time>2021-07-06T20:36:08Z</time>
      </trkpt>
      <trkpt lat="46.51012" lon="5.93173">
        <ele>935</ele>
        <time>2021-07-06T20:36:43Z</time>
      </trkpt>
      <trkpt lat="46.50969" lon="5.93125">
        <ele>931</ele>
        <time>2021-07-06T20:37:27Z</time>
      </trkpt>
      <trkpt lat="46.5094" lon="5.93036">
        <ele>929</ele>
        <time>2021-07-06T20:38:21Z</time>
      </trkpt>
      <trkpt lat="46.50908" lon="5.92952">
        <ele>930</ele>
        <time>2021-07-06T20:39:14Z</time>
      </trkpt>
      <trkpt lat="46.50872" lon="5.92834">
        <ele>933</ele>
        <time>2021-07-06T20:40:25Z</time>
      </trkpt>
      <trkpt lat="46.50838" lon="5.9274">
        <ele>936</ele>
        <time>2021-07-06T20:41:23Z</time>
      </trkpt>
      <trkpt lat="46.50833" lon="5.92714">
        <ele>936</ele>
        <time>2021-07-06T20:41:38Z</time>
      </trkpt>
      <trkpt lat="46.50833" lon="5.92705">
        <ele>937</ele>
        <time>2021-07-06T20:41:43Z</time>
      </trkpt>
      <trkpt lat="46.50845" lon="5.92711">
        <ele>937</ele>
        <time>2021-07-06T20:41:53Z</time>
      </trkpt>
      <trkpt lat="46.50874" lon="5.92706">
        <ele>938</ele>
        <time>2021-07-06T20:42:17Z</time>
      </trkpt>
      <trkpt lat="46.50891" lon="5.92701">
        <ele>939</ele>
        <time>2021-07-06T20:42:31Z</time>
      </trkpt>
      <trkpt lat="46.50939" lon="5.92655">
        <ele>943</ele>
        <time>2021-07-06T20:43:17Z</time>
      </trkpt>
      <trkpt lat="46.5098" lon="5.92636">
        <ele>947</ele>
        <time>2021-07-06T20:43:51Z</time>
      </trkpt>
      <trkpt lat="46.51004" lon="5.92632">
        <ele>950</ele>
        <time>2021-07-06T20:44:10Z</time>
      </trkpt>
      <trkpt lat="46.51061" lon="5.92666">
        <ele>952</ele>
        <time>2021-07-06T20:45:00Z</time>
      </trkpt>
      <trkpt lat="46.51081" lon="5.92672">
        <ele>953</ele>
        <time>2021-07-06T20:45:16Z</time>
      </trkpt>
      <trkpt lat="46.51152" lon="5.92662">
        <ele>954</ele>
        <time>2021-07-06T20:46:13Z</time>
      </trkpt>
      <trkpt lat="46.51179" lon="5.92681">
        <ele>955</ele>
        <time>2021-07-06T20:46:37Z</time>
      </trkpt>
      <trkpt lat="46.51214" lon="5.92688">
        <ele>957</ele>
        <time>2021-07-06T20:47:06Z</time>
      </trkpt>
      <trkpt lat="46.51233" lon="5.92702">
        <ele>958</ele>
        <time>2021-07-06T20:47:23Z</time>
      </trkpt>
      <trkpt lat="46.51243" lon="5.92749">
        <ele>958</ele>
        <time>2021-07-06T20:47:50Z</time>
      </trkpt>
      <trkpt lat="46.51243" lon="5.92787">
        <ele>956</ele>
        <time>2021-07-06T20:48:11Z</time>
      </trkpt>
      <trkpt lat="46.51267" lon="5.92893">
        <ele>954</ele>
        <time>2021-07-06T20:49:12Z</time>
      </trkpt>
      <trkpt lat="46.51288" lon="5.92911">
        <ele>955</ele>
        <time>2021-07-06T20:49:32Z</time>
      </trkpt>
      <trkpt lat="46.51313" lon="5.92925">
        <ele>955</ele>
        <time>2021-07-06T20:49:53Z</time>
      </trkpt>
      <trkpt lat="46.51326" lon="5.92938">
        <ele>956</ele>
        <time>2021-07-06T20:50:06Z</time>
      </trkpt>
      <trkpt lat="46.51337" lon="5.92946">
        <ele>957</ele>
        <time>2021-07-06T20:50:16Z</time>
      </trkpt>
      <trkpt lat="46.51359" lon="5.92938">
        <ele>957</ele>
        <time>2021-07-06T20:50:34Z</time>
      </trkpt>
      <trkpt lat="46.51371" lon="5.92918">
        <ele>957</ele>
        <time>2021-07-06T20:50:48Z</time>
      </trkpt>
      <trkpt lat="46.51378" lon="5.9289">
        <ele>958</ele>
        <time>2021-07-06T20:51:05Z</time>
      </trkpt>
      <trkpt lat="46.51392" lon="5.92871">
        <ele>959</ele>
        <time>2021-07-06T20:51:20Z</time>
      </trkpt>
      <trkpt lat="46.51449" lon="5.92863">
        <ele>962</ele>
        <time>2021-07-06T20:52:06Z</time>
      </trkpt>
      <trkpt lat="46.51462" lon="5.92867">
        <ele>963</ele>
        <time>2021-07-06T20:52:17Z</time>
      </trkpt>
      <trkpt lat="46.51524" lon="5.9293">
        <ele>964</ele>
        <time>2021-07-06T20:53:17Z</time>
      </trkpt>
      <trkpt lat="46.51543" lon="5.92961">
        <ele>965</ele>
        <time>2021-07-06T20:53:40Z</time>
      </trkpt>
      <trkpt lat="46.51561" lon="5.9298">
        <ele>966</ele>
        <time>2021-07-06T20:53:58Z</time>
      </trkpt>
      <trkpt lat="46.51593" lon="5.92999">
        <ele>967</ele>
        <time>2021-07-06T20:54:26Z</time>
      </trkpt>
      <trkpt lat="46.51616" lon="5.93004">
        <ele>967</ele>
        <time>2021-07-06T20:54:44Z</time>
      </trkpt>
      <trkpt lat="46.51687" lon="5.93005">
        <ele>970</ele>
        <time>2021-07-06T20:55:41Z</time>
      </trkpt>
      <trkpt lat="46.51709" lon="5.92998">
        <ele>972</ele>
        <time>2021-07-06T20:55:59Z</time>
      </trkpt>
      <trkpt lat="46.51766" lon="5.92964">
        <ele>978</ele>
        <time>2021-07-06T20:56:48Z</time>
      </trkpt>
      <trkpt lat="46.51786" lon="5.92963">
        <ele>980</ele>
        <time>2021-07-06T20:57:04Z</time>
      </trkpt>
      <trkpt lat="46.51795" lon="5.92966">
        <ele>981</ele>
        <time>2021-07-06T20:57:12Z</time>
      </trkpt>
      <trkpt lat="46.51799" lon="5.9297">
        <ele>982</ele>
        <time>2021-07-06T20:57:16Z</time>
      </trkpt>
      <trkpt lat="46.51864" lon="5.92961">
        <ele>990</ele>
        <time>2021-07-06T20:58:08Z</time>
      </trkpt>
      <trkpt lat="46.51875" lon="5.92962">
        <ele>992</ele>
        <time>2021-07-06T20:58:17Z</time>
      </trkpt>
      <trkpt lat="46.519" lon="5.92939">
        <ele>996</ele>
        <time>2021-07-06T20:58:40Z</time>
      </trkpt>
      <trkpt lat="46.51927" lon="5.92898">
        <ele>999</ele>
        <time>2021-07-06T20:59:12Z</time>
      </trkpt>
      <trkpt lat="46.51953" lon="5.92872">
        <ele>1001</ele>
        <time>2021-07-06T20:59:37Z</time>
      </trkpt>
      <trkpt lat="46.52014" lon="5.92855">
        <ele>1008</ele>
        <time>2021-07-06T21:00:27Z</time>
      </trkpt>
      <trkpt lat="46.52173" lon="5.92799">
        <ele>1027</ele>
        <time>2021-07-06T21:02:38Z</time>
      </trkpt>
      <trkpt lat="46.52287" lon="5.92767">
        <ele>1036</ele>
        <time>2021-07-06T21:04:11Z</time>
      </trkpt>
      <trkpt lat="46.52389" lon="5.92701">
        <ele>1045</ele>
        <time>2021-07-06T21:05:40Z</time>
      </trkpt>
      <trkpt lat="46.52528" lon="5.92572">
        <ele>1048</ele>
        <time>2021-07-06T21:07:52Z</time>
      </trkpt>
      <trkpt lat="46.52603" lon="5.92525">
        <ele>1047</ele>
        <time>2021-07-06T21:08:58Z</time>
      </trkpt>
      <trkpt lat="46.52606" lon="5.92514">
        <ele>1047</ele>
        <time>2021-07-06T21:09:04Z</time>
      </trkpt>
      <trkpt lat="46.52636" lon="5.92498">
        <ele>1049</ele>
        <time>2021-07-06T21:09:30Z</time>
      </trkpt>
      <trkpt lat="46.52649" lon="5.92466">
        <ele>1049</ele>
        <time>2021-07-06T21:09:50Z</time>
      </trkpt>
      <trkpt lat="46.52664" lon="5.92446">
        <ele>1048</ele>
        <time>2021-07-06T21:10:06Z</time>
      </trkpt>
      <trkpt lat="46.52675" lon="5.92419">
        <ele>1047</ele>
        <time>2021-07-06T21:10:24Z</time>
      </trkpt>
      <trkpt lat="46.52681" lon="5.92391">
        <ele>1045</ele>
        <time>2021-07-06T21:10:40Z</time>
      </trkpt>
      <trkpt lat="46.52703" lon="5.9234">
        <ele>1040</ele>
        <time>2021-07-06T21:11:13Z</time>
      </trkpt>
      <trkpt lat="46.52711" lon="5.92337">
        <ele>1040</ele>
        <time>2021-07-06T21:11:20Z</time>
      </trkpt>
      <trkpt lat="46.52707" lon="5.92288">
        <ele>1037</ele>
        <time>2021-07-06T21:11:47Z</time>
      </trkpt>
      <trkpt lat="46.52727" lon="5.92267">
        <ele>1033</ele>
        <time>2021-07-06T21:12:07Z</time>
      </trkpt>
      <trkpt lat="46.52745" lon="5.92217">
        <ele>1025</ele>
        <time>2021-07-06T21:12:38Z</time>
      </trkpt>
      <trkpt lat="46.52768" lon="5.9218">
        <ele>1018</ele>
        <time>2021-07-06T21:13:05Z</time>
      </trkpt>
      <trkpt lat="46.52846" lon="5.92167">
        <ele>1009</ele>
        <time>2021-07-06T21:14:08Z</time>
      </trkpt>
      <trkpt lat="46.52923" lon="5.92192">
        <ele>1000</ele>
        <time>2021-07-06T21:15:11Z</time>
      </trkpt>
      <trkpt lat="46.52989" lon="5.92209">
        <ele>988</ele>
        <time>2021-07-06T21:16:05Z</time>
      </trkpt>
      <trkpt lat="46.5305" lon="5.92206">
        <ele>974</ele>
        <time>2021-07-06T21:16:54Z</time>
      </trkpt>
      <trkpt lat="46.5315" lon="5.92189">
        <ele>943</ele>
        <time>2021-07-06T21:18:14Z</time>
      </trkpt>
      <trkpt lat="46.53172" lon="5.92191">
        <ele>937</ele>
        <time>2021-07-06T21:18:32Z</time>
      </trkpt>
      <trkpt lat="46.53225" lon="5.92211">
        <ele>928</ele>
        <time>2021-07-06T21:19:16Z</time>
      </trkpt>
      <trkpt lat="46.53262" lon="5.92228">
        <ele>921</ele>
        <time>2021-07-06T21:19:47Z</time>
      </trkpt>
      <trkpt lat="46.53277" lon="5.92256">
        <ele>920</ele>
        <time>2021-07-06T21:20:06Z</time>
      </trkpt>
      <trkpt lat="46.53289" lon="5.92275">
        <ele>920</ele>
        <time>2021-07-06T21:20:21Z</time>
      </trkpt>
      <trkpt lat="46.53305" lon="5.92274">
        <ele>916</ele>
        <time>2021-07-06T21:20:33Z</time>
      </trkpt>
      <trkpt lat="46.53324" lon="5.9225">
        <ele>908</ele>
        <time>2021-07-06T21:20:54Z</time>
      </trkpt>
      <trkpt lat="46.53348" lon="5.92243">
        <ele>903</ele>
        <time>2021-07-06T21:21:13Z</time>
      </trkpt>
      <trkpt lat="46.53378" lon="5.92242">
        <ele>897</ele>
        <time>2021-07-06T21:21:37Z</time>
      </trkpt>
      <trkpt lat="46.53426" lon="5.92254">
        <ele>891</ele>
        <time>2021-07-06T21:22:16Z</time>
      </trkpt>
      <trkpt lat="46.53428" lon="5.92243">
        <ele>889</ele>
        <time>2021-07-06T21:22:23Z</time>
      </trkpt>
      <trkpt lat="46.53445" lon="5.92216">
        <ele>885</ele>
        <time>2021-07-06T21:22:43Z</time>
      </trkpt>
      <trkpt lat="46.53465" lon="5.92167">
        <ele>879</ele>
        <time>2021-07-06T21:23:14Z</time>
      </trkpt>
      <trkpt lat="46.53508" lon="5.92195">
        <ele>879</ele>
        <time>2021-07-06T21:23:52Z</time>
      </trkpt>
      <trkpt lat="46.53531" lon="5.92201">
        <ele>878</ele>
        <time>2021-07-06T21:24:10Z</time>
      </trkpt>
      <trkpt lat="46.53568" lon="5.92197">
        <ele>877</ele>
        <time>2021-07-06T21:24:40Z</time>
      </trkpt>
      <trkpt lat="46.53589" lon="5.92192">
        <ele>877</ele>
        <time>2021-07-06T21:24:57Z</time>
      </trkpt>
      <trkpt lat="46.53616" lon="5.9218">
        <ele>878</ele>
        <time>2021-07-06T21:25:20Z</time>
      </trkpt>
      <trkpt lat="46.5364" lon="5.92166">
        <ele>879</ele>
        <time>2021-07-06T21:25:41Z</time>
      </trkpt>
      <trkpt lat="46.53648" lon="5.92181">
        <ele>879</ele>
        <time>2021-07-06T21:25:51Z</time>
      </trkpt>
      <trkpt lat="46.53663" lon="5.92197">
        <ele>880</ele>
        <time>2021-07-06T21:26:06Z</time>
      </trkpt>
      <trkpt lat="46.53688" lon="5.92217">
        <ele>881</ele>
        <time>2021-07-06T21:26:29Z</time>
      </trkpt>
      <trkpt lat="46.53793" lon="5.92283">
        <ele>887</ele>
        <time>2021-07-06T21:28:00Z</time>
      </trkpt>
      <trkpt lat="46.53828" lon="5.92315">
        <ele>889</ele>
        <time>2021-07-06T21:28:33Z</time>
      </trkpt>
      <trkpt lat="46.53825" lon="5.92343">
        <ele>890</ele>
        <time>2021-07-06T21:28:49Z</time>
      </trkpt>
      <trkpt lat="46.5378" lon="5.92535">
        <ele>895</ele>
        <time>2021-07-06T21:30:41Z</time>
      </trkpt>
      <trkpt lat="46.53779" lon="5.92583">
        <ele>897</ele>
        <time>2021-07-06T21:31:07Z</time>
      </trkpt>
      <trkpt lat="46.53787" lon="5.92634">
        <ele>903</ele>
        <time>2021-07-06T21:31:36Z</time>
      </trkpt>
      <trkpt lat="46.53817" lon="5.92711">
        <ele>908</ele>
        <time>2021-07-06T21:32:25Z</time>
      </trkpt>
      <trkpt lat="46.53816" lon="5.92762">
        <ele>915</ele>
        <time>2021-07-06T21:32:53Z</time>
      </trkpt>
      <trkpt lat="46.53834" lon="5.92826">
        <ele>923</ele>
        <time>2021-07-06T21:33:31Z</time>
      </trkpt>
      <trkpt lat="46.53845" lon="5.92852">
        <ele>925</ele>
        <time>2021-07-06T21:33:48Z</time>
      </trkpt>
      <trkpt lat="46.53936" lon="5.93017">
        <ele>938</ele>
        <time>2021-07-06T21:35:44Z</time>
      </trkpt>
      <trkpt lat="46.53994" lon="5.93112">
        <ele>947</ele>
        <time>2021-07-06T21:36:54Z</time>
      </trkpt>
      <trkpt lat="46.54043" lon="5.93178">
        <ele>951</ele>
        <time>2021-07-06T21:37:48Z</time>
      </trkpt>
      <trkpt lat="46.54053" lon="5.9321">
        <ele>954</ele>
        <time>2021-07-06T21:38:07Z</time>
      </trkpt>
      <trkpt lat="46.54051" lon="5.93235">
        <ele>957</ele>
        <time>2021-07-06T21:38:21Z</time>
      </trkpt>
      <trkpt lat="46.54153" lon="5.93353">
        <ele>960</ele>
        <time>2021-07-06T21:40:05Z</time>
      </trkpt>
      <trkpt lat="46.54177" lon="5.93389">
        <ele>962</ele>
        <time>2021-07-06T21:40:33Z</time>
      </trkpt>
      <trkpt lat="46.54295" lon="5.93515">
        <ele>969</ele>
        <time>2021-07-06T21:42:30Z</time>
      </trkpt>
      <trkpt lat="46.54352" lon="5.93535">
        <ele>968</ele>
        <time>2021-07-06T21:43:17Z</time>
      </trkpt>
      <trkpt lat="46.54372" lon="5.93561">
        <ele>969</ele>
        <time>2021-07-06T21:43:39Z</time>
      </trkpt>
      <trkpt lat="46.54384" lon="5.93594">
        <ele>971</ele>
        <time>2021-07-06T21:43:59Z</time>
      </trkpt>
      <trkpt lat="46.54399" lon="5.9362">
        <ele>969</ele>
        <time>2021-07-06T21:44:18Z</time>
      </trkpt>
      <trkpt lat="46.54435" lon="5.93662">
        <ele>962</ele>
        <time>2021-07-06T21:44:55Z</time>
      </trkpt>
      <trkpt lat="46.54504" lon="5.93735">
        <ele>943</ele>
        <time>2021-07-06T21:46:03Z</time>
      </trkpt>
      <trkpt lat="46.54518" lon="5.93771">
        <ele>945</ele>
        <time>2021-07-06T21:46:26Z</time>
      </trkpt>
      <trkpt lat="46.54533" lon="5.93764">
        <ele>943</ele>
        <time>2021-07-06T21:46:38Z</time>
      </trkpt>
      <trkpt lat="46.54549" lon="5.93787">
        <ele>946</ele>
        <time>2021-07-06T21:46:56Z</time>
      </trkpt>
      <trkpt lat="46.54564" lon="5.9382">
        <ele>950</ele>
        <time>2021-07-06T21:47:18Z</time>
      </trkpt>
      <trkpt lat="46.54579" lon="5.93881">
        <ele>959</ele>
        <time>2021-07-06T21:47:54Z</time>
      </trkpt>
      <trkpt lat="46.54569" lon="5.93931">
        <ele>966</ele>
        <time>2021-07-06T21:48:23Z</time>
      </trkpt>
      <trkpt lat="46.54552" lon="5.93984">
        <ele>974</ele>
        <time>2021-07-06T21:48:55Z</time>
      </trkpt>
      <trkpt lat="46.54543" lon="5.94037">
        <ele>983</ele>
        <time>2021-07-06T21:49:25Z</time>
      </trkpt>
      <trkpt lat="46.54546" lon="5.94091">
        <ele>992</ele>
        <time>2021-07-06T21:49:55Z</time>
      </trkpt>
      <trkpt lat="46.54553" lon="5.94131">
        <ele>999</ele>
        <time>2021-07-06T21:50:17Z</time>
      </trkpt>
      <trkpt lat="46.54577" lon="5.94172">
        <ele>1001</ele>
        <time>2021-07-06T21:50:47Z</time>
      </trkpt>
      <trkpt lat="46.54577" lon="5.94236">
        <ele>1011</ele>
        <time>2021-07-06T21:51:22Z</time>
      </trkpt>
      <trkpt lat="46.54582" lon="5.94276">
        <ele>1016</ele>
        <time>2021-07-06T21:51:45Z</time>
      </trkpt>
      <trkpt lat="46.5461" lon="5.94322">
        <ele>1018</ele>
        <time>2021-07-06T21:52:19Z</time>
      </trkpt>
      <trkpt lat="46.54641" lon="5.94379">
        <ele>1020</ele>
        <time>2021-07-06T21:52:59Z</time>
      </trkpt>
      <trkpt lat="46.54669" lon="5.94437">
        <ele>1021</ele>
        <time>2021-07-06T21:53:38Z</time>
      </trkpt>
      <trkpt lat="46.54683" lon="5.94475">
        <ele>1022</ele>
        <time>2021-07-06T21:54:01Z</time>
      </trkpt>
      <trkpt lat="46.54681" lon="5.94485">
        <ele>1024</ele>
        <time>2021-07-06T21:54:07Z</time>
      </trkpt>
      <trkpt lat="46.5473" lon="5.94566">
        <ele>1029</ele>
        <time>2021-07-06T21:55:06Z</time>
      </trkpt>
      <trkpt lat="46.54754" lon="5.94623">
        <ele>1035</ele>
        <time>2021-07-06T21:55:43Z</time>
      </trkpt>
      <trkpt lat="46.54799" lon="5.94619">
        <ele>1024</ele>
        <time>2021-07-06T21:56:19Z</time>
      </trkpt>
      <trkpt lat="46.54824" lon="5.94637">
        <ele>1023</ele>
        <time>2021-07-06T21:56:42Z</time>
      </trkpt>
      <trkpt lat="46.54846" lon="5.94644">
        <ele>1020</ele>
        <time>2021-07-06T21:57:00Z</time>
      </trkpt>
      <trkpt lat="46.54922" lon="5.9468">
        <ele>1013</ele>
        <time>2021-07-06T21:58:04Z</time>
      </trkpt>
      <trkpt lat="46.5494" lon="5.94677">
        <ele>1009</ele>
        <time>2021-07-06T21:58:18Z</time>
      </trkpt>
      <trkpt lat="46.54982" lon="5.947">
        <ele>1003</ele>
        <time>2021-07-06T21:58:54Z</time>
      </trkpt>
      <trkpt lat="46.55022" lon="5.94704">
        <ele>996</ele>
        <time>2021-07-06T21:59:26Z</time>
      </trkpt>
      <trkpt lat="46.55032" lon="5.94698">
        <ele>994</ele>
        <time>2021-07-06T21:59:35Z</time>
      </trkpt>
      <trkpt lat="46.55049" lon="5.94739">
        <ele>995</ele>
        <time>2021-07-06T22:00:01Z</time>
      </trkpt>
      <trkpt lat="46.55088" lon="5.94747">
        <ele>988</ele>
        <time>2021-07-06T22:00:33Z</time>
      </trkpt>
      <trkpt lat="46.55109" lon="5.94779">
        <ele>985</ele>
        <time>2021-07-06T22:00:57Z</time>
      </trkpt>
      <trkpt lat="46.5511" lon="5.94786">
        <ele>985</ele>
        <time>2021-07-06T22:01:01Z</time>
      </trkpt>
      <trkpt lat="46.55144" lon="5.94825">
        <ele>979</ele>
        <time>2021-07-06T22:01:36Z</time>
      </trkpt>
      <trkpt lat="46.55147" lon="5.94824">
        <ele>978</ele>
        <time>2021-07-06T22:01:38Z</time>
      </trkpt>
      <trkpt lat="46.5516" lon="5.94836">
        <ele>975</ele>
        <time>2021-07-06T22:01:51Z</time>
      </trkpt>
      <trkpt lat="46.55166" lon="5.94848">
        <ele>974</ele>
        <time>2021-07-06T22:01:59Z</time>
      </trkpt>
      <trkpt lat="46.55165" lon="5.94855">
        <ele>974</ele>
        <time>2021-07-06T22:02:03Z</time>
      </trkpt>
      <trkpt lat="46.55179" lon="5.94873">
        <ele>971</ele>
        <time>2021-07-06T22:02:18Z</time>
      </trkpt>
      <trkpt lat="46.55185" lon="5.94871">
        <ele>969</ele>
        <time>2021-07-06T22:02:23Z</time>
      </trkpt>
      <trkpt lat="46.55192" lon="5.94884">
        <ele>968</ele>
        <time>2021-07-06T22:02:32Z</time>
      </trkpt>
      <trkpt lat="46.55213" lon="5.94891">
        <ele>963</ele>
        <time>2021-07-06T22:02:49Z</time>
      </trkpt>
      <trkpt lat="46.55261" lon="5.94934">
        <ele>954</ele>
        <time>2021-07-06T22:03:34Z</time>
      </trkpt>
      <trkpt lat="46.55262" lon="5.94949">
        <ele>954</ele>
        <time>2021-07-06T22:03:42Z</time>
      </trkpt>
      <trkpt lat="46.5527" lon="5.94967">
        <ele>955</ele>
        <time>2021-07-06T22:03:54Z</time>
      </trkpt>
      <trkpt lat="46.55293" lon="5.94971">
        <ele>952</ele>
        <time>2021-07-06T22:04:13Z</time>
      </trkpt>
      <trkpt lat="46.55312" lon="5.94997">
        <ele>952</ele>
        <time>2021-07-06T22:04:34Z</time>
      </trkpt>
      <trkpt lat="46.55329" lon="5.95005">
        <ele>951</ele>
        <time>2021-07-06T22:04:48Z</time>
      </trkpt>
      <trkpt lat="46.5537" lon="5.94973">
        <ele>941</ele>
        <time>2021-07-06T22:05:25Z</time>
      </trkpt>
      <trkpt lat="46.55436" lon="5.94975">
        <ele>932</ele>
        <time>2021-07-06T22:06:18Z</time>
      </trkpt>
      <trkpt lat="46.55487" lon="5.94985">
        <ele>929</ele>
        <time>2021-07-06T22:06:59Z</time>
      </trkpt>
      <trkpt lat="46.55501" lon="5.95002">
        <ele>929</ele>
        <time>2021-07-06T22:07:14Z</time>
      </trkpt>
      <trkpt lat="46.5552" lon="5.95048">
        <ele>932</ele>
        <time>2021-07-06T22:07:43Z</time>
      </trkpt>
      <trkpt lat="46.55546" lon="5.95078">
        <ele>930</ele>
        <time>2021-07-06T22:08:10Z</time>
      </trkpt>
      <trkpt lat="46.55551" lon="5.95078">
        <ele>929</ele>
        <time>2021-07-06T22:08:14Z</time>
      </trkpt>
      <trkpt lat="46.55565" lon="5.95087">
        <ele>927</ele>
        <time>2021-07-06T22:08:26Z</time>
      </trkpt>
      <trkpt lat="46.55579" lon="5.95102">
        <ele>925</ele>
        <time>2021-07-06T22:08:40Z</time>
      </trkpt>
      <trkpt lat="46.55615" lon="5.95126">
        <ele>923</ele>
        <time>2021-07-06T22:09:12Z</time>
      </trkpt>
      <trkpt lat="46.55648" lon="5.95127">
        <ele>921</ele>
        <time>2021-07-06T22:09:38Z</time>
      </trkpt>
      <trkpt lat="46.55674" lon="5.95133">
        <ele>920</ele>
        <time>2021-07-06T22:09:59Z</time>
      </trkpt>
      <trkpt lat="46.55708" lon="5.95184">
        <ele>921</ele>
        <time>2021-07-06T22:10:38Z</time>
      </trkpt>
      <trkpt lat="46.55738" lon="5.95244">
        <ele>923</ele>
        <time>2021-07-06T22:11:19Z</time>
      </trkpt>
      <trkpt lat="46.55759" lon="5.95257">
        <ele>922</ele>
        <time>2021-07-06T22:11:38Z</time>
      </trkpt>
      <trkpt lat="46.5577" lon="5.9526">
        <ele>922</ele>
        <time>2021-07-06T22:11:47Z</time>
      </trkpt>
      <trkpt lat="46.55779" lon="5.9527">
        <ele>921</ele>
        <time>2021-07-06T22:11:56Z</time>
      </trkpt>
      <trkpt lat="46.55786" lon="5.95283">
        <ele>921</ele>
        <time>2021-07-06T22:12:05Z</time>
      </trkpt>
      <trkpt lat="46.55836" lon="5.95313">
        <ele>922</ele>
        <time>2021-07-06T22:12:48Z</time>
      </trkpt>
      <trkpt lat="46.55868" lon="5.95322">
        <ele>921</ele>
        <time>2021-07-06T22:13:14Z</time>
      </trkpt>
      <trkpt lat="46.55872" lon="5.95328">
        <ele>921</ele>
        <time>2021-07-06T22:13:19Z</time>
      </trkpt>
      <trkpt lat="46.55889" lon="5.95339">
        <ele>920</ele>
        <time>2021-07-06T22:13:34Z</time>
      </trkpt>
      <trkpt lat="46.55911" lon="5.95366">
        <ele>918</ele>
        <time>2021-07-06T22:13:57Z</time>
      </trkpt>
      <trkpt lat="46.55914" lon="5.95373">
        <ele>918</ele>
        <time>2021-07-06T22:14:01Z</time>
      </trkpt>
      <trkpt lat="46.55936" lon="5.95389">
        <ele>918</ele>
        <time>2021-07-06T22:14:21Z</time>
      </trkpt>
      <trkpt lat="46.55956" lon="5.95392">
        <ele>918</ele>
        <time>2021-07-06T22:14:37Z</time>
      </trkpt>
      <trkpt lat="46.55981" lon="5.9538">
        <ele>917</ele>
        <time>2021-07-06T22:14:58Z</time>
      </trkpt>
      <trkpt lat="46.55998" lon="5.95383">
        <ele>917</ele>
        <time>2021-07-06T22:15:12Z</time>
      </trkpt>
      <trkpt lat="46.56057" lon="5.95408">
        <ele>919</ele>
        <time>2021-07-06T22:16:01Z</time>
      </trkpt>
      <trkpt lat="46.56084" lon="5.95417">
        <ele>919</ele>
        <time>2021-07-06T22:16:23Z</time>
      </trkpt>
      <trkpt lat="46.5614" lon="5.9545">
        <ele>918</ele>
        <time>2021-07-06T22:17:12Z</time>
      </trkpt>
      <trkpt lat="46.56156" lon="5.95465">
        <ele>919</ele>
        <time>2021-07-06T22:17:27Z</time>
      </trkpt>
      <trkpt lat="46.56171" lon="5.95489">
        <ele>919</ele>
        <time>2021-07-06T22:17:45Z</time>
      </trkpt>
      <trkpt lat="46.56204" lon="5.95515">
        <ele>917</ele>
        <time>2021-07-06T22:18:15Z</time>
      </trkpt>
      <trkpt lat="46.56236" lon="5.95551">
        <ele>915</ele>
        <time>2021-07-06T22:18:47Z</time>
      </trkpt>
      <trkpt lat="46.56249" lon="5.95559">
        <ele>914</ele>
        <time>2021-07-06T22:18:58Z</time>
      </trkpt>
      <trkpt lat="46.56257" lon="5.95572">
        <ele>914</ele>
        <time>2021-07-06T22:19:08Z</time>
      </trkpt>
      <trkpt lat="46.5627" lon="5.95585">
        <ele>914</ele>
        <time>2021-07-06T22:19:21Z</time>
      </trkpt>
      <trkpt lat="46.56277" lon="5.95596">
        <ele>913</ele>
        <time>2021-07-06T22:19:29Z</time>
      </trkpt>
      <trkpt lat="46.56296" lon="5.9563">
        <ele>913</ele>
        <time>2021-07-06T22:19:53Z</time>
      </trkpt>
      <trkpt lat="46.56347" lon="5.95692">
        <ele>912</ele>
        <time>2021-07-06T22:20:46Z</time>
      </trkpt>
      <trkpt lat="46.56368" lon="5.95706">
        <ele>912</ele>
        <time>2021-07-06T22:21:05Z</time>
      </trkpt>
      <trkpt lat="46.56402" lon="5.95725">
        <ele>912</ele>
        <time>2021-07-06T22:21:34Z</time>
      </trkpt>
      <trkpt lat="46.56434" lon="5.95752">
        <ele>911</ele>
        <time>2021-07-06T22:22:03Z</time>
      </trkpt>
      <trkpt lat="46.56461" lon="5.95789">
        <ele>910</ele>
        <time>2021-07-06T22:22:33Z</time>
      </trkpt>
      <trkpt lat="46.56484" lon="5.95795">
        <ele>909</ele>
        <time>2021-07-06T22:22:52Z</time>
      </trkpt>
      <trkpt lat="46.56578" lon="5.95662">
        <ele>904</ele>
        <time>2021-07-06T22:24:37Z</time>
      </trkpt>
      <trkpt lat="46.56616" lon="5.95615">
        <ele>905</ele>
        <time>2021-07-06T22:25:17Z</time>
      </trkpt>
      <trkpt lat="46.56643" lon="5.95612">
        <ele>906</ele>
        <time>2021-07-06T22:25:39Z</time>
      </trkpt>
      <trkpt lat="46.56658" lon="5.95621">
        <ele>905</ele>
        <time>2021-07-06T22:25:51Z</time>
      </trkpt>
      <trkpt lat="46.56694" lon="5.95631">
        <ele>906</ele>
        <time>2021-07-06T22:26:21Z</time>
      </trkpt>
      <trkpt lat="46.56721" lon="5.95618">
        <ele>908</ele>
        <time>2021-07-06T22:26:44Z</time>
      </trkpt>
      <trkpt lat="46.56743" lon="5.95617">
        <ele>909</ele>
        <time>2021-07-06T22:27:01Z</time>
      </trkpt>
      <trkpt lat="46.56796" lon="5.95647">
        <ele>911</ele>
        <time>2021-07-06T22:27:47Z</time>
      </trkpt>
      <trkpt lat="46.56813" lon="5.95665">
        <ele>911</ele>
        <time>2021-07-06T22:28:04Z</time>
      </trkpt>
      <trkpt lat="46.56849" lon="5.95685">
        <ele>913</ele>
        <time>2021-07-06T22:28:34Z</time>
      </trkpt>
      <trkpt lat="46.56945" lon="5.95643">
        <ele>915</ele>
        <time>2021-07-06T22:29:55Z</time>
      </trkpt>
      <trkpt lat="46.56995" lon="5.95626">
        <ele>914</ele>
        <time>2021-07-06T22:30:36Z</time>
      </trkpt>
      <trkpt lat="46.56964" lon="5.95698">
        <ele>913</ele>
        <time>2021-07-06T22:31:23Z</time>
      </trkpt>
      <trkpt lat="46.5696" lon="5.95713">
        <ele>913</ele>
        <time>2021-07-06T22:31:31Z</time>
      </trkpt>
      <trkpt lat="46.56956" lon="5.95739">
        <ele>914</ele>
        <time>2021-07-06T22:31:46Z</time>
      </trkpt>
      <trkpt lat="46.56956" lon="5.9575">
        <ele>914</ele>
        <time>2021-07-06T22:31:52Z</time>
      </trkpt>
      <trkpt lat="46.56959" lon="5.95774">
        <ele>913</ele>
        <time>2021-07-06T22:32:06Z</time>
      </trkpt>
      <trkpt lat="46.56985" lon="5.95829">
        <ele>914</ele>
        <time>2021-07-06T22:32:42Z</time>
      </trkpt>
      <trkpt lat="46.57002" lon="5.95873">
        <ele>913</ele>
        <time>2021-07-06T22:33:10Z</time>
      </trkpt>
      <trkpt lat="46.5701" lon="5.95911">
        <ele>913</ele>
        <time>2021-07-06T22:33:32Z</time>
      </trkpt>
      <trkpt lat="46.57014" lon="5.9592">
        <ele>913</ele>
        <time>2021-07-06T22:33:38Z</time>
      </trkpt>
      <trkpt lat="46.57041" lon="5.95949">
        <ele>914</ele>
        <time>2021-07-06T22:34:05Z</time>
      </trkpt>
      <trkpt lat="46.57066" lon="5.96011">
        <ele>914</ele>
        <time>2021-07-06T22:34:44Z</time>
      </trkpt>
      <trkpt lat="46.57086" lon="5.96068">
        <ele>913</ele>
        <time>2021-07-06T22:35:20Z</time>
      </trkpt>
      <trkpt lat="46.57094" lon="5.96104">
        <ele>912</ele>
        <time>2021-07-06T22:35:40Z</time>
      </trkpt>
      <trkpt lat="46.57098" lon="5.96128">
        <ele>912</ele>
        <time>2021-07-06T22:35:54Z</time>
      </trkpt>
      <trkpt lat="46.571" lon="5.96191">
        <ele>912</ele>
        <time>2021-07-06T22:36:29Z</time>
      </trkpt>
      <trkpt lat="46.57135" lon="5.96182">
        <ele>913</ele>
        <time>2021-07-06T22:36:57Z</time>
      </trkpt>
      <trkpt lat="46.57162" lon="5.96179">
        <ele>915</ele>
        <time>2021-07-06T22:37:19Z</time>
      </trkpt>
      <trkpt lat="46.57107" lon="5.96188">
        <ele>912</ele>
        <time>2021-07-06T22:38:03Z</time>
      </trkpt>
      <trkpt lat="46.57089" lon="5.96198">
        <ele>911</ele>
        <time>2021-07-06T22:38:19Z</time>
      </trkpt>
      <trkpt lat="46.57078" lon="5.96213">
        <ele>911</ele>
        <time>2021-07-06T22:38:31Z</time>
      </trkpt>
      <trkpt lat="46.57069" lon="5.96238">
        <ele>911</ele>
        <time>2021-07-06T22:38:46Z</time>
      </trkpt>
      <trkpt lat="46.57046" lon="5.96325">
        <ele>912</ele>
        <time>2021-07-06T22:39:37Z</time>
      </trkpt>
      <trkpt lat="46.5703" lon="5.96397">
        <ele>915</ele>
        <time>2021-07-06T22:40:19Z</time>
      </trkpt>
      <trkpt lat="46.57011" lon="5.96448">
        <ele>917</ele>
        <time>2021-07-06T22:40:51Z</time>
      </trkpt>
      <trkpt lat="46.57006" lon="5.96476">
        <ele>918</ele>
        <time>2021-07-06T22:41:07Z</time>
      </trkpt>
      <trkpt lat="46.57005" lon="5.96531">
        <ele>917</ele>
        <time>2021-07-06T22:41:37Z</time>
      </trkpt>
      <trkpt lat="46.56995" lon="5.9657">
        <ele>914</ele>
        <time>2021-07-06T22:42:00Z</time>
      </trkpt>
      <trkpt lat="46.56992" lon="5.9657">
        <ele>914</ele>
        <time>2021-07-06T22:42:03Z</time>
      </trkpt>
      <trkpt lat="46.56964" lon="5.96601">
        <ele>911</ele>
        <time>2021-07-06T22:42:31Z</time>
      </trkpt>
      <trkpt lat="46.5695" lon="5.96627">
        <ele>910</ele>
        <time>2021-07-06T22:42:49Z</time>
      </trkpt>
      <trkpt lat="46.56941" lon="5.9665">
        <ele>909</ele>
        <time>2021-07-06T22:43:04Z</time>
      </trkpt>
      <trkpt lat="46.56939" lon="5.96662">
        <ele>908</ele>
        <time>2021-07-06T22:43:10Z</time>
      </trkpt>
      <trkpt lat="46.56939" lon="5.9668">
        <ele>908</ele>
        <time>2021-07-06T22:43:20Z</time>
      </trkpt>
      <trkpt lat="46.5694" lon="5.96805">
        <ele>907</ele>
        <time>2021-07-06T22:44:29Z</time>
      </trkpt>
      <trkpt lat="46.56944" lon="5.96834">
        <ele>907</ele>
        <time>2021-07-06T22:44:45Z</time>
      </trkpt>
      <trkpt lat="46.5695" lon="5.96858">
        <ele>907</ele>
        <time>2021-07-06T22:44:59Z</time>
      </trkpt>
      <trkpt lat="46.5696" lon="5.96886">
        <ele>907</ele>
        <time>2021-07-06T22:45:17Z</time>
      </trkpt>
      <trkpt lat="46.56951" lon="5.96896">
        <ele>908</ele>
        <time>2021-07-06T22:45:26Z</time>
      </trkpt>
      <trkpt lat="46.56936" lon="5.96912">
        <ele>910</ele>
        <time>2021-07-06T22:45:41Z</time>
      </trkpt>
      <trkpt lat="46.56927" lon="5.96915">
        <ele>911</ele>
        <time>2021-07-06T22:45:48Z</time>
      </trkpt>
      <trkpt lat="46.56918" lon="5.96915">
        <ele>912</ele>
        <time>2021-07-06T22:45:55Z</time>
      </trkpt>
      <trkpt lat="46.56912" lon="5.96911">
        <ele>912</ele>
        <time>2021-07-06T22:46:01Z</time>
      </trkpt>
      <trkpt lat="46.56905" lon="5.96895">
        <ele>912</ele>
        <time>2021-07-06T22:46:11Z</time>
      </trkpt>
      <trkpt lat="46.56905" lon="5.96895">
        <ele>912</ele>
        <time>2021-07-06T22:46:11Z</time>
      </trkpt>
      <trkpt lat="46.569" lon="5.96864">
        <ele>910</ele>
        <time>2021-07-06T22:46:29Z</time>
      </trkpt>
      <trkpt lat="46.569" lon="5.96825">
        <ele>909</ele>
        <time>2021-07-06T22:46:50Z</time>
      </trkpt>
      <trkpt lat="46.56897" lon="5.96807">
        <ele>908</ele>
        <time>2021-07-06T22:47:00Z</time>
      </trkpt>
      <trkpt lat="46.56877" lon="5.96776">
        <ele>908</ele>
        <time>2021-07-06T22:47:24Z</time>
      </trkpt>
      <trkpt lat="46.56821" lon="5.96828">
        <ele>914</ele>
        <time>2021-07-06T22:48:17Z</time>
      </trkpt>
      <trkpt lat="46.56749" lon="5.96888">
        <ele>927</ele>
        <time>2021-07-06T22:49:23Z</time>
      </trkpt>
      <trkpt lat="46.56732" lon="5.96914">
        <ele>928</ele>
        <time>2021-07-06T22:49:43Z</time>
      </trkpt>
      <trkpt lat="46.56722" lon="5.96941">
        <ele>928</ele>
        <time>2021-07-06T22:50:00Z</time>
      </trkpt>
      <trkpt lat="46.56722" lon="5.96941">
        <ele>928</ele>
        <time>2021-07-06T22:50:00Z</time>
      </trkpt>
      <trkpt lat="46.5672" lon="5.96962">
        <ele>928</ele>
        <time>2021-07-06T22:50:12Z</time>
      </trkpt>
      <trkpt lat="46.5673" lon="5.97016">
        <ele>929</ele>
        <time>2021-07-06T22:50:42Z</time>
      </trkpt>
      <trkpt lat="46.5673" lon="5.97035">
        <ele>930</ele>
        <time>2021-07-06T22:50:53Z</time>
      </trkpt>
      <trkpt lat="46.56712" lon="5.97012">
        <ele>929</ele>
        <time>2021-07-06T22:51:12Z</time>
      </trkpt>
      <trkpt lat="46.56684" lon="5.96961">
        <ele>929</ele>
        <time>2021-07-06T22:51:48Z</time>
      </trkpt>
      <trkpt lat="46.56646" lon="5.96947">
        <ele>930</ele>
        <time>2021-07-06T22:52:19Z</time>
      </trkpt>
      <trkpt lat="46.5656" lon="5.96934">
        <ele>933</ele>
        <time>2021-07-06T22:53:29Z</time>
      </trkpt>
      <trkpt lat="46.5655" lon="5.96946">
        <ele>937</ele>
        <time>2021-07-06T22:53:39Z</time>
      </trkpt>
      <trkpt lat="46.56535" lon="5.96958">
        <ele>941</ele>
        <time>2021-07-06T22:53:53Z</time>
      </trkpt>
      <trkpt lat="46.56524" lon="5.96955">
        <ele>941</ele>
        <time>2021-07-06T22:54:02Z</time>
      </trkpt>
      <trkpt lat="46.56495" lon="5.96921">
        <ele>937</ele>
        <time>2021-07-06T22:54:31Z</time>
      </trkpt>
      <trkpt lat="46.56483" lon="5.96917">
        <ele>938</ele>
        <time>2021-07-06T22:54:41Z</time>
      </trkpt>
      <trkpt lat="46.56475" lon="5.96919">
        <ele>939</ele>
        <time>2021-07-06T22:54:48Z</time>
      </trkpt>
      <trkpt lat="46.56463" lon="5.96936">
        <ele>944</ele>
        <time>2021-07-06T22:55:01Z</time>
      </trkpt>
      <trkpt lat="46.56444" lon="5.96927">
        <ele>944</ele>
        <time>2021-07-06T22:55:17Z</time>
      </trkpt>
      <trkpt lat="46.56424" lon="5.96898">
        <ele>942</ele>
        <time>2021-07-06T22:55:40Z</time>
      </trkpt>
      <trkpt lat="46.56381" lon="5.96851">
        <ele>945</ele>
        <time>2021-07-06T22:56:23Z</time>
      </trkpt>
      <trkpt lat="46.56354" lon="5.96814">
        <ele>944</ele>
        <time>2021-07-06T22:56:53Z</time>
      </trkpt>
      <trkpt lat="46.56341" lon="5.96808">
        <ele>946</ele>
        <time>2021-07-06T22:57:03Z</time>
      </trkpt>
      <trkpt lat="46.56246" lon="5.96802">
        <ele>956</ele>
        <time>2021-07-06T22:58:20Z</time>
      </trkpt>
      <trkpt lat="46.56225" lon="5.96795">
        <ele>959</ele>
        <time>2021-07-06T22:58:37Z</time>
      </trkpt>
      <trkpt lat="46.56206" lon="5.96783">
        <ele>960</ele>
        <time>2021-07-06T22:58:53Z</time>
      </trkpt>
      <trkpt lat="46.56157" lon="5.96714">
        <ele>959</ele>
        <time>2021-07-06T22:59:48Z</time>
      </trkpt>
      <trkpt lat="46.56146" lon="5.96706">
        <ele>959</ele>
        <time>2021-07-06T22:59:58Z</time>
      </trkpt>
      <trkpt lat="46.56135" lon="5.96706">
        <ele>961</ele>
        <time>2021-07-06T23:00:07Z</time>
      </trkpt>
      <trkpt lat="46.56106" lon="5.96725">
        <ele>968</ele>
        <time>2021-07-06T23:00:32Z</time>
      </trkpt>
      <trkpt lat="46.56072" lon="5.96735">
        <ele>973</ele>
        <time>2021-07-06T23:01:00Z</time>
      </trkpt>
      <trkpt lat="46.56052" lon="5.96715">
        <ele>973</ele>
        <time>2021-07-06T23:01:19Z</time>
      </trkpt>
      <trkpt lat="46.5602" lon="5.96673">
        <ele>972</ele>
        <time>2021-07-06T23:01:54Z</time>
      </trkpt>
      <trkpt lat="46.56009" lon="5.96673">
        <ele>974</ele>
        <time>2021-07-06T23:02:03Z</time>
      </trkpt>
      <trkpt lat="46.55984" lon="5.96693">
        <ele>977</ele>
        <time>2021-07-06T23:02:26Z</time>
      </trkpt>
      <trkpt lat="46.55958" lon="5.96693">
        <ele>978</ele>
        <time>2021-07-06T23:02:46Z</time>
      </trkpt>
      <trkpt lat="46.5592" lon="5.96674">
        <ele>981</ele>
        <time>2021-07-06T23:03:19Z</time>
      </trkpt>
      <trkpt lat="46.55876" lon="5.96691">
        <ele>987</ele>
        <time>2021-07-06T23:03:55Z</time>
      </trkpt>
      <trkpt lat="46.55843" lon="5.9674">
        <ele>989</ele>
        <time>2021-07-06T23:04:33Z</time>
      </trkpt>
      <trkpt lat="46.5582" lon="5.96768">
        <ele>992</ele>
        <time>2021-07-06T23:04:57Z</time>
      </trkpt>
      <trkpt lat="46.55781" lon="5.96799">
        <ele>995</ele>
        <time>2021-07-06T23:05:32Z</time>
      </trkpt>
      <trkpt lat="46.55733" lon="5.96857">
        <ele>997</ele>
        <time>2021-07-06T23:06:22Z</time>
      </trkpt>
      <trkpt lat="46.55716" lon="5.96883">
        <ele>998</ele>
        <time>2021-07-06T23:06:42Z</time>
      </trkpt>
      <trkpt lat="46.55691" lon="5.96937">
        <ele>1000</ele>
        <time>2021-07-06T23:07:18Z</time>
      </trkpt>
      <trkpt lat="46.55642" lon="5.97062">
        <ele>1004</ele>
        <time>2021-07-06T23:08:37Z</time>
      </trkpt>
      <trkpt lat="46.55604" lon="5.97084">
        <ele>1006</ele>
        <time>2021-07-06T23:09:10Z</time>
      </trkpt>
      <trkpt lat="46.55591" lon="5.97111">
        <ele>1007</ele>
        <time>2021-07-06T23:09:28Z</time>
      </trkpt>
      <trkpt lat="46.55593" lon="5.97149">
        <ele>1007</ele>
        <time>2021-07-06T23:09:49Z</time>
      </trkpt>
      <trkpt lat="46.55592" lon="5.9718">
        <ele>1007</ele>
        <time>2021-07-06T23:10:06Z</time>
      </trkpt>
      <trkpt lat="46.5556" lon="5.97281">
        <ele>1009</ele>
        <time>2021-07-06T23:11:07Z</time>
      </trkpt>
      <trkpt lat="46.55553" lon="5.97368">
        <ele>1010</ele>
        <time>2021-07-06T23:11:56Z</time>
      </trkpt>
      <trkpt lat="46.55548" lon="5.97398">
        <ele>1011</ele>
        <time>2021-07-06T23:12:13Z</time>
      </trkpt>
      <trkpt lat="46.55539" lon="5.97417">
        <ele>1011</ele>
        <time>2021-07-06T23:12:25Z</time>
      </trkpt>
      <trkpt lat="46.55512" lon="5.97443">
        <ele>1015</ele>
        <time>2021-07-06T23:12:51Z</time>
      </trkpt>
      <trkpt lat="46.55494" lon="5.97456">
        <ele>1018</ele>
        <time>2021-07-06T23:13:07Z</time>
      </trkpt>
      <trkpt lat="46.55474" lon="5.97467">
        <ele>1023</ele>
        <time>2021-07-06T23:13:24Z</time>
      </trkpt>
      <trkpt lat="46.55461" lon="5.97471">
        <ele>1025</ele>
        <time>2021-07-06T23:13:35Z</time>
      </trkpt>
      <trkpt lat="46.55448" lon="5.97471">
        <ele>1027</ele>
        <time>2021-07-06T23:13:45Z</time>
      </trkpt>
      <trkpt lat="46.55443" lon="5.97469">
        <ele>1027</ele>
        <time>2021-07-06T23:13:50Z</time>
      </trkpt>
      <trkpt lat="46.5544" lon="5.97466">
        <ele>1027</ele>
        <time>2021-07-06T23:13:53Z</time>
      </trkpt>
      <trkpt lat="46.55419" lon="5.97434">
        <ele>1024</ele>
        <time>2021-07-06T23:14:17Z</time>
      </trkpt>
      <trkpt lat="46.55408" lon="5.97428">
        <ele>1024</ele>
        <time>2021-07-06T23:14:26Z</time>
      </trkpt>
      <trkpt lat="46.55394" lon="5.97425">
        <ele>1025</ele>
        <time>2021-07-06T23:14:38Z</time>
      </trkpt>
      <trkpt lat="46.55374" lon="5.97432">
        <ele>1028</ele>
        <time>2021-07-06T23:14:54Z</time>
      </trkpt>
      <trkpt lat="46.55336" lon="5.97493">
        <ele>1036</ele>
        <time>2021-07-06T23:15:39Z</time>
      </trkpt>
      <trkpt lat="46.55327" lon="5.97503">
        <ele>1038</ele>
        <time>2021-07-06T23:15:48Z</time>
      </trkpt>
      <trkpt lat="46.55315" lon="5.97511">
        <ele>1040</ele>
        <time>2021-07-06T23:15:59Z</time>
      </trkpt>
      <trkpt lat="46.55296" lon="5.97516">
        <ele>1042</ele>
        <time>2021-07-06T23:16:14Z</time>
      </trkpt>
      <trkpt lat="46.55263" lon="5.97513">
        <ele>1043</ele>
        <time>2021-07-06T23:16:41Z</time>
      </trkpt>
      <trkpt lat="46.55237" lon="5.97503">
        <ele>1044</ele>
        <time>2021-07-06T23:17:03Z</time>
      </trkpt>
      <trkpt lat="46.55216" lon="5.97481">
        <ele>1043</ele>
        <time>2021-07-06T23:17:23Z</time>
      </trkpt>
      <trkpt lat="46.55203" lon="5.97472">
        <ele>1043</ele>
        <time>2021-07-06T23:17:35Z</time>
      </trkpt>
      <trkpt lat="46.55176" lon="5.97464">
        <ele>1045</ele>
        <time>2021-07-06T23:17:57Z</time>
      </trkpt>
      <trkpt lat="46.55151" lon="5.97471">
        <ele>1050</ele>
        <time>2021-07-06T23:18:17Z</time>
      </trkpt>
      <trkpt lat="46.55133" lon="5.9747">
        <ele>1053</ele>
        <time>2021-07-06T23:18:32Z</time>
      </trkpt>
      <trkpt lat="46.55103" lon="5.9752">
        <ele>1063</ele>
        <time>2021-07-06T23:19:08Z</time>
      </trkpt>
      <trkpt lat="46.55085" lon="5.97536">
        <ele>1067</ele>
        <time>2021-07-06T23:19:25Z</time>
      </trkpt>
      <trkpt lat="46.55071" lon="5.97538">
        <ele>1067</ele>
        <time>2021-07-06T23:19:36Z</time>
      </trkpt>
      <trkpt lat="46.55063" lon="5.97544">
        <ele>1068</ele>
        <time>2021-07-06T23:19:44Z</time>
      </trkpt>
      <trkpt lat="46.55038" lon="5.97553">
        <ele>1068</ele>
        <time>2021-07-06T23:20:04Z</time>
      </trkpt>
      <trkpt lat="46.5502" lon="5.97588">
        <ele>1068</ele>
        <time>2021-07-06T23:20:28Z</time>
      </trkpt>
      <trkpt lat="46.55015" lon="5.97612">
        <ele>1069</ele>
        <time>2021-07-06T23:20:42Z</time>
      </trkpt>
      <trkpt lat="46.54992" lon="5.97651">
        <ele>1069</ele>
        <time>2021-07-06T23:21:10Z</time>
      </trkpt>
      <trkpt lat="46.54977" lon="5.97693">
        <ele>1068</ele>
        <time>2021-07-06T23:21:36Z</time>
      </trkpt>
      <trkpt lat="46.54957" lon="5.97732">
        <ele>1066</ele>
        <time>2021-07-06T23:22:03Z</time>
      </trkpt>
      <trkpt lat="46.54926" lon="5.97768">
        <ele>1063</ele>
        <time>2021-07-06T23:22:35Z</time>
      </trkpt>
      <trkpt lat="46.54899" lon="5.9783">
        <ele>1062</ele>
        <time>2021-07-06T23:23:15Z</time>
      </trkpt>
      <trkpt lat="46.54828" lon="5.97717">
        <ele>1063</ele>
        <time>2021-07-06T23:24:40Z</time>
      </trkpt>
      <trkpt lat="46.54769" lon="5.97742">
        <ele>1063</ele>
        <time>2021-07-06T23:25:29Z</time>
      </trkpt>
      <trkpt lat="46.54713" lon="5.97755">
        <ele>1065</ele>
        <time>2021-07-06T23:26:14Z</time>
      </trkpt>
      <trkpt lat="46.54671" lon="5.97691">
        <ele>1062</ele>
        <time>2021-07-06T23:27:03Z</time>
      </trkpt>
      <trkpt lat="46.54638" lon="5.97685">
        <ele>1062</ele>
        <time>2021-07-06T23:27:30Z</time>
      </trkpt>
      <trkpt lat="46.5458" lon="5.97631">
        <ele>1062</ele>
        <time>2021-07-06T23:28:25Z</time>
      </trkpt>
      <trkpt lat="46.54541" lon="5.97639">
        <ele>1059</ele>
        <time>2021-07-06T23:28:56Z</time>
      </trkpt>
      <trkpt lat="46.54483" lon="5.97665">
        <ele>1055</ele>
        <time>2021-07-06T23:29:45Z</time>
      </trkpt>
      <trkpt lat="46.54426" lon="5.97682">
        <ele>1048</ele>
        <time>2021-07-06T23:30:31Z</time>
      </trkpt>
      <trkpt lat="46.54343" lon="5.97803">
        <ele>1042</ele>
        <time>2021-07-06T23:32:06Z</time>
      </trkpt>
      <trkpt lat="46.54257" lon="5.97831">
        <ele>1045</ele>
        <time>2021-07-06T23:33:16Z</time>
      </trkpt>
      <trkpt lat="46.54246" lon="5.97882">
        <ele>1048</ele>
        <time>2021-07-06T23:33:46Z</time>
      </trkpt>
      <trkpt lat="46.54224" lon="5.97899">
        <ele>1048</ele>
        <time>2021-07-06T23:34:05Z</time>
      </trkpt>
      <trkpt lat="46.54175" lon="5.97892">
        <ele>1046</ele>
        <time>2021-07-06T23:34:45Z</time>
      </trkpt>
      <trkpt lat="46.54157" lon="5.97909">
        <ele>1045</ele>
        <time>2021-07-06T23:35:02Z</time>
      </trkpt>
      <trkpt lat="46.54139" lon="5.97942">
        <ele>1044</ele>
        <time>2021-07-06T23:35:25Z</time>
      </trkpt>
      <trkpt lat="46.54089" lon="5.98065">
        <ele>1032</ele>
        <time>2021-07-06T23:36:44Z</time>
      </trkpt>
      <trkpt lat="46.54058" lon="5.98129">
        <ele>1025</ele>
        <time>2021-07-06T23:37:27Z</time>
      </trkpt>
      <trkpt lat="46.54008" lon="5.98192">
        <ele>1017</ele>
        <time>2021-07-06T23:38:20Z</time>
      </trkpt>
      <trkpt lat="46.53998" lon="5.983">
        <ele>1021</ele>
        <time>2021-07-06T23:39:20Z</time>
      </trkpt>
      <trkpt lat="46.53934" lon="5.98332">
        <ele>1028</ele>
        <time>2021-07-06T23:40:14Z</time>
      </trkpt>
      <trkpt lat="46.53918" lon="5.98359">
        <ele>1030</ele>
        <time>2021-07-06T23:40:34Z</time>
      </trkpt>
      <trkpt lat="46.53898" lon="5.98403">
        <ele>1033</ele>
        <time>2021-07-06T23:41:03Z</time>
      </trkpt>
      <trkpt lat="46.53852" lon="5.98415">
        <ele>1033</ele>
        <time>2021-07-06T23:41:40Z</time>
      </trkpt>
      <trkpt lat="46.53821" lon="5.98454">
        <ele>1032</ele>
        <time>2021-07-06T23:42:13Z</time>
      </trkpt>
      <trkpt lat="46.53791" lon="5.98471">
        <ele>1031</ele>
        <time>2021-07-06T23:42:39Z</time>
      </trkpt>
      <trkpt lat="46.53774" lon="5.9854">
        <ele>1031</ele>
        <time>2021-07-06T23:43:19Z</time>
      </trkpt>
      <trkpt lat="46.53723" lon="5.98603">
        <ele>1033</ele>
        <time>2021-07-06T23:44:13Z</time>
      </trkpt>
      <trkpt lat="46.53687" lon="5.98644">
        <ele>1031</ele>
        <time>2021-07-06T23:44:50Z</time>
      </trkpt>
      <trkpt lat="46.53652" lon="5.98701">
        <ele>1026</ele>
        <time>2021-07-06T23:45:32Z</time>
      </trkpt>
      <trkpt lat="46.53637" lon="5.9873">
        <ele>1023</ele>
        <time>2021-07-06T23:45:52Z</time>
      </trkpt>
      <trkpt lat="46.53577" lon="5.98818">
        <ele>1012</ele>
        <time>2021-07-06T23:47:00Z</time>
      </trkpt>
      <trkpt lat="46.53545" lon="5.98873">
        <ele>1006</ele>
        <time>2021-07-06T23:47:40Z</time>
      </trkpt>
      <trkpt lat="46.53526" lon="5.98914">
        <ele>1002</ele>
        <time>2021-07-06T23:48:07Z</time>
      </trkpt>
      <trkpt lat="46.53483" lon="5.98981">
        <ele>995</ele>
        <time>2021-07-06T23:48:57Z</time>
      </trkpt>
      <trkpt lat="46.53479" lon="5.98991">
        <ele>994</ele>
        <time>2021-07-06T23:49:04Z</time>
      </trkpt>
      <trkpt lat="46.5348" lon="5.99019">
        <ele>992</ele>
        <time>2021-07-06T23:49:19Z</time>
      </trkpt>
      <trkpt lat="46.53502" lon="5.99076">
        <ele>989</ele>
        <time>2021-07-06T23:49:55Z</time>
      </trkpt>
      <trkpt lat="46.53515" lon="5.99102">
        <ele>987</ele>
        <time>2021-07-06T23:50:13Z</time>
      </trkpt>
      <trkpt lat="46.53558" lon="5.99203">
        <ele>978</ele>
        <time>2021-07-06T23:51:18Z</time>
      </trkpt>
      <trkpt lat="46.53577" lon="5.99262">
        <ele>969</ele>
        <time>2021-07-06T23:51:54Z</time>
      </trkpt>
      <trkpt lat="46.53602" lon="5.9935">
        <ele>961</ele>
        <time>2021-07-06T23:52:46Z</time>
      </trkpt>
      <trkpt lat="46.53622" lon="5.99447">
        <ele>949</ele>
        <time>2021-07-06T23:53:42Z</time>
      </trkpt>
      <trkpt lat="46.5365" lon="5.99509">
        <ele>945</ele>
        <time>2021-07-06T23:54:23Z</time>
      </trkpt>
      <trkpt lat="46.53705" lon="5.99606">
        <ele>941</ele>
        <time>2021-07-06T23:55:32Z</time>
      </trkpt>
      <trkpt lat="46.53688" lon="5.99666">
        <ele>921</ele>
        <time>2021-07-06T23:56:08Z</time>
      </trkpt>
      <trkpt lat="46.53695" lon="5.99692">
        <ele>917</ele>
        <time>2021-07-06T23:56:23Z</time>
      </trkpt>
      <trkpt lat="46.53713" lon="5.99709">
        <ele>919</ele>
        <time>2021-07-06T23:56:41Z</time>
      </trkpt>
      <trkpt lat="46.53717" lon="5.99717">
        <ele>918</ele>
        <time>2021-07-06T23:56:46Z</time>
      </trkpt>
      <trkpt lat="46.53723" lon="5.99743">
        <ele>914</ele>
        <time>2021-07-06T23:57:01Z</time>
      </trkpt>
      <trkpt lat="46.53745" lon="5.998">
        <ele>908</ele>
        <time>2021-07-06T23:57:37Z</time>
      </trkpt>
      <trkpt lat="46.53761" lon="5.99822">
        <ele>908</ele>
        <time>2021-07-06T23:57:55Z</time>
      </trkpt>
      <trkpt lat="46.53766" lon="5.99842">
        <ele>906</ele>
        <time>2021-07-06T23:58:07Z</time>
      </trkpt>
      <trkpt lat="46.53765" lon="5.9986">
        <ele>903</ele>
        <time>2021-07-06T23:58:17Z</time>
      </trkpt>
      <trkpt lat="46.53762" lon="5.99869">
        <ele>900</ele>
        <time>2021-07-06T23:58:22Z</time>
      </trkpt>
      <trkpt lat="46.53745" lon="5.99897">
        <ele>892</ele>
        <time>2021-07-06T23:58:43Z</time>
      </trkpt>
      <trkpt lat="46.5374" lon="5.99911">
        <ele>889</ele>
        <time>2021-07-06T23:58:51Z</time>
      </trkpt>
      <trkpt lat="46.53737" lon="5.99928">
        <ele>887</ele>
        <time>2021-07-06T23:59:01Z</time>
      </trkpt>
      <trkpt lat="46.53735" lon="5.99967">
        <ele>883</ele>
        <time>2021-07-06T23:59:22Z</time>
      </trkpt>
      <trkpt lat="46.53733" lon="5.99976">
        <ele>882</ele>
        <time>2021-07-06T23:59:28Z</time>
      </trkpt>
      <trkpt lat="46.53724" lon="6.00003">
        <ele>878</ele>
        <time>2021-07-06T23:59:44Z</time>
      </trkpt>
      <trkpt lat="46.53717" lon="6.00007">
        <ele>877</ele>
        <time>2021-07-06T23:59:50Z</time>
      </trkpt>
      <trkpt lat="46.53686" lon="5.99998">
        <ele>871</ele>
        <time>2021-07-07T00:00:16Z</time>
      </trkpt>
      <trkpt lat="46.53681" lon="6.00032">
        <ele>867</ele>
        <time>2021-07-07T00:00:35Z</time>
      </trkpt>
      <trkpt lat="46.53681" lon="6.0005">
        <ele>866</ele>
        <time>2021-07-07T00:00:45Z</time>
      </trkpt>
      <trkpt lat="46.53686" lon="6.00075">
        <ele>865</ele>
        <time>2021-07-07T00:00:59Z</time>
      </trkpt>
      <trkpt lat="46.53705" lon="6.00127">
        <ele>864</ele>
        <time>2021-07-07T00:01:31Z</time>
      </trkpt>
      <trkpt lat="46.53707" lon="6.00138">
        <ele>864</ele>
        <time>2021-07-07T00:01:38Z</time>
      </trkpt>
      <trkpt lat="46.53708" lon="6.00155">
        <ele>863</ele>
        <time>2021-07-07T00:01:47Z</time>
      </trkpt>
      <trkpt lat="46.53705" lon="6.00168">
        <ele>861</ele>
        <time>2021-07-07T00:01:55Z</time>
      </trkpt>
      <trkpt lat="46.53693" lon="6.00186">
        <ele>859</ele>
        <time>2021-07-07T00:02:08Z</time>
      </trkpt>
      <trkpt lat="46.53682" lon="6.00167">
        <ele>858</ele>
        <time>2021-07-07T00:02:22Z</time>
      </trkpt>
      <trkpt lat="46.53673" lon="6.00155">
        <ele>858</ele>
        <time>2021-07-07T00:02:32Z</time>
      </trkpt>
      <trkpt lat="46.5364" lon="6.00127">
        <ele>853</ele>
        <time>2021-07-07T00:03:02Z</time>
      </trkpt>
      <trkpt lat="46.53633" lon="6.00157">
        <ele>850</ele>
        <time>2021-07-07T00:03:20Z</time>
      </trkpt>
      <trkpt lat="46.53601" lon="6.0022">
        <ele>842</ele>
        <time>2021-07-07T00:04:03Z</time>
      </trkpt>
      <trkpt lat="46.53598" lon="6.00238">
        <ele>842</ele>
        <time>2021-07-07T00:04:13Z</time>
      </trkpt>
      <trkpt lat="46.53608" lon="6.00297">
        <ele>843</ele>
        <time>2021-07-07T00:04:47Z</time>
      </trkpt>
      <trkpt lat="46.53561" lon="6.00205">
        <ele>834</ele>
        <time>2021-07-07T00:05:50Z</time>
      </trkpt>
      <trkpt lat="46.53559" lon="6.00261">
        <ele>831</ele>
        <time>2021-07-07T00:06:21Z</time>
      </trkpt>
      <trkpt lat="46.53553" lon="6.00273">
        <ele>830</ele>
        <time>2021-07-07T00:06:29Z</time>
      </trkpt>
      <trkpt lat="46.5355" lon="6.00275">
        <ele>829</ele>
        <time>2021-07-07T00:06:32Z</time>
      </trkpt>
      <trkpt lat="46.53543" lon="6.0028">
        <ele>827</ele>
        <time>2021-07-07T00:06:38Z</time>
      </trkpt>
      <trkpt lat="46.53541" lon="6.00287">
        <ele>826</ele>
        <time>2021-07-07T00:06:42Z</time>
      </trkpt>
      <trkpt lat="46.53537" lon="6.00366">
        <ele>826</ele>
        <time>2021-07-07T00:07:26Z</time>
      </trkpt>
      <trkpt lat="46.53534" lon="6.00392">
        <ele>826</ele>
        <time>2021-07-07T00:07:40Z</time>
      </trkpt>
      <trkpt lat="46.53526" lon="6.00438">
        <ele>824</ele>
        <time>2021-07-07T00:08:06Z</time>
      </trkpt>
      <trkpt lat="46.53522" lon="6.00481">
        <ele>824</ele>
        <time>2021-07-07T00:08:30Z</time>
      </trkpt>
      <trkpt lat="46.53519" lon="6.00569">
        <ele>818</ele>
        <time>2021-07-07T00:09:19Z</time>
      </trkpt>
      <trkpt lat="46.53514" lon="6.00618">
        <ele>815</ele>
        <time>2021-07-07T00:09:46Z</time>
      </trkpt>
      <trkpt lat="46.53509" lon="6.00643">
        <ele>812</ele>
        <time>2021-07-07T00:10:00Z</time>
      </trkpt>
      <trkpt lat="46.53508" lon="6.00654">
        <ele>812</ele>
        <time>2021-07-07T00:10:06Z</time>
      </trkpt>
      <trkpt lat="46.53509" lon="6.00666">
        <ele>811</ele>
        <time>2021-07-07T00:10:13Z</time>
      </trkpt>
      <trkpt lat="46.53532" lon="6.0085">
        <ele>800</ele>
        <time>2021-07-07T00:11:56Z</time>
      </trkpt>
      <trkpt lat="46.53538" lon="6.00874">
        <ele>799</ele>
        <time>2021-07-07T00:12:10Z</time>
      </trkpt>
      <trkpt lat="46.53565" lon="6.00915">
        <ele>807</ele>
        <time>2021-07-07T00:12:41Z</time>
      </trkpt>
      <trkpt lat="46.53573" lon="6.00937">
        <ele>807</ele>
        <time>2021-07-07T00:12:55Z</time>
      </trkpt>
      <trkpt lat="46.5359" lon="6.01041">
        <ele>796</ele>
        <time>2021-07-07T00:13:54Z</time>
      </trkpt>
      <trkpt lat="46.53616" lon="6.01129">
        <ele>799</ele>
        <time>2021-07-07T00:14:47Z</time>
      </trkpt>
      <trkpt lat="46.53627" lon="6.01179">
        <ele>800</ele>
        <time>2021-07-07T00:15:16Z</time>
      </trkpt>
      <trkpt lat="46.53637" lon="6.01229">
        <ele>803</ele>
        <time>2021-07-07T00:15:44Z</time>
      </trkpt>
      <trkpt lat="46.53637" lon="6.01265">
        <ele>803</ele>
        <time>2021-07-07T00:16:04Z</time>
      </trkpt>
      <trkpt lat="46.53626" lon="6.01324">
        <ele>807</ele>
        <time>2021-07-07T00:16:38Z</time>
      </trkpt>
      <trkpt lat="46.53621" lon="6.01365">
        <ele>810</ele>
        <time>2021-07-07T00:17:01Z</time>
      </trkpt>
      <trkpt lat="46.53616" lon="6.01376">
        <ele>811</ele>
        <time>2021-07-07T00:17:08Z</time>
      </trkpt>
      <trkpt lat="46.53611" lon="6.0138">
        <ele>811</ele>
        <time>2021-07-07T00:17:13Z</time>
      </trkpt>
      <trkpt lat="46.53601" lon="6.01381">
        <ele>812</ele>
        <time>2021-07-07T00:17:21Z</time>
      </trkpt>
      <trkpt lat="46.53593" lon="6.01372">
        <ele>811</ele>
        <time>2021-07-07T00:17:29Z</time>
      </trkpt>
      <trkpt lat="46.53581" lon="6.0135">
        <ele>810</ele>
        <time>2021-07-07T00:17:44Z</time>
      </trkpt>
      <trkpt lat="46.53576" lon="6.013">
        <ele>803</ele>
        <time>2021-07-07T00:18:12Z</time>
      </trkpt>
      <trkpt lat="46.53573" lon="6.01288">
        <ele>801</ele>
        <time>2021-07-07T00:18:19Z</time>
      </trkpt>
      <trkpt lat="46.53567" lon="6.01278">
        <ele>800</ele>
        <time>2021-07-07T00:18:26Z</time>
      </trkpt>
      <trkpt lat="46.53515" lon="6.01228">
        <ele>799</ele>
        <time>2021-07-07T00:19:16Z</time>
      </trkpt>
      <trkpt lat="46.53486" lon="6.01217">
        <ele>792</ele>
        <time>2021-07-07T00:19:40Z</time>
      </trkpt>
      <trkpt lat="46.53477" lon="6.01204">
        <ele>785</ele>
        <time>2021-07-07T00:19:50Z</time>
      </trkpt>
      <trkpt lat="46.53458" lon="6.01197">
        <ele>776</ele>
        <time>2021-07-07T00:20:06Z</time>
      </trkpt>
      <trkpt lat="46.53449" lon="6.01199">
        <ele>773</ele>
        <time>2021-07-07T00:20:13Z</time>
      </trkpt>
      <trkpt lat="46.53422" lon="6.01221">
        <ele>766</ele>
        <time>2021-07-07T00:20:38Z</time>
      </trkpt>
      <trkpt lat="46.53411" lon="6.01246">
        <ele>765</ele>
        <time>2021-07-07T00:20:55Z</time>
      </trkpt>
      <trkpt lat="46.53409" lon="6.01247">
        <ele>764</ele>
        <time>2021-07-07T00:20:56Z</time>
      </trkpt>
      <trkpt lat="46.53401" lon="6.01186">
        <ele>748</ele>
        <time>2021-07-07T00:21:30Z</time>
      </trkpt>
      <trkpt lat="46.53407" lon="6.0114">
        <ele>741</ele>
        <time>2021-07-07T00:21:56Z</time>
      </trkpt>
      <trkpt lat="46.53422" lon="6.01116">
        <ele>740</ele>
        <time>2021-07-07T00:22:14Z</time>
      </trkpt>
      <trkpt lat="46.53423" lon="6.01086">
        <ele>731</ele>
        <time>2021-07-07T00:22:31Z</time>
      </trkpt>
      <trkpt lat="46.53411" lon="6.01091">
        <ele>729</ele>
        <time>2021-07-07T00:22:41Z</time>
      </trkpt>
      <trkpt lat="46.53397" lon="6.01114">
        <ele>730</ele>
        <time>2021-07-07T00:22:58Z</time>
      </trkpt>
      <trkpt lat="46.53388" lon="6.01116">
        <ele>727</ele>
        <time>2021-07-07T00:23:05Z</time>
      </trkpt>
      <trkpt lat="46.53386" lon="6.01113">
        <ele>726</ele>
        <time>2021-07-07T00:23:07Z</time>
      </trkpt>
      <trkpt lat="46.53385" lon="6.01097">
        <ele>722</ele>
        <time>2021-07-07T00:23:16Z</time>
      </trkpt>
      <trkpt lat="46.53392" lon="6.01072">
        <ele>719</ele>
        <time>2021-07-07T00:23:31Z</time>
      </trkpt>
      <trkpt lat="46.53412" lon="6.01063">
        <ele>723</ele>
        <time>2021-07-07T00:23:48Z</time>
      </trkpt>
      <trkpt lat="46.53408" lon="6.0105">
        <ele>720</ele>
        <time>2021-07-07T00:23:55Z</time>
      </trkpt>
      <trkpt lat="46.53385" lon="6.01049">
        <ele>714</ele>
        <time>2021-07-07T00:24:14Z</time>
      </trkpt>
      <trkpt lat="46.53382" lon="6.01054">
        <ele>714</ele>
        <time>2021-07-07T00:24:18Z</time>
      </trkpt>
      <trkpt lat="46.53345" lon="6.012">
        <ele>718</ele>
        <time>2021-07-07T00:25:43Z</time>
      </trkpt>
      <trkpt lat="46.53331" lon="6.01263">
        <ele>715</ele>
        <time>2021-07-07T00:26:20Z</time>
      </trkpt>
      <trkpt lat="46.53302" lon="6.0137">
        <ele>722</ele>
        <time>2021-07-07T00:27:23Z</time>
      </trkpt>
      <trkpt lat="46.53296" lon="6.0141">
        <ele>724</ele>
        <time>2021-07-07T00:27:46Z</time>
      </trkpt>
      <trkpt lat="46.53292" lon="6.01421">
        <ele>724</ele>
        <time>2021-07-07T00:27:52Z</time>
      </trkpt>
      <trkpt lat="46.53282" lon="6.01439">
        <ele>722</ele>
        <time>2021-07-07T00:28:05Z</time>
      </trkpt>
      <trkpt lat="46.53215" lon="6.01499">
        <ele>708</ele>
        <time>2021-07-07T00:29:08Z</time>
      </trkpt>
      <trkpt lat="46.53192" lon="6.01523">
        <ele>704</ele>
        <time>2021-07-07T00:29:31Z</time>
      </trkpt>
      <trkpt lat="46.53184" lon="6.01538">
        <ele>703</ele>
        <time>2021-07-07T00:29:41Z</time>
      </trkpt>
      <trkpt lat="46.53158" lon="6.01597">
        <ele>705</ele>
        <time>2021-07-07T00:30:20Z</time>
      </trkpt>
      <trkpt lat="46.5309" lon="6.01697">
        <ele>703</ele>
        <time>2021-07-07T00:31:37Z</time>
      </trkpt>
      <trkpt lat="46.53084" lon="6.01709">
        <ele>701</ele>
        <time>2021-07-07T00:31:46Z</time>
      </trkpt>
      <trkpt lat="46.53077" lon="6.01728">
        <ele>703</ele>
        <time>2021-07-07T00:31:57Z</time>
      </trkpt>
      <trkpt lat="46.53072" lon="6.01751">
        <ele>705</ele>
        <time>2021-07-07T00:32:11Z</time>
      </trkpt>
      <trkpt lat="46.5307" lon="6.01783">
        <ele>705</ele>
        <time>2021-07-07T00:32:28Z</time>
      </trkpt>
      <trkpt lat="46.53066" lon="6.01838">
        <ele>704</ele>
        <time>2021-07-07T00:32:59Z</time>
      </trkpt>
      <trkpt lat="46.53067" lon="6.01886">
        <ele>705</ele>
        <time>2021-07-07T00:33:25Z</time>
      </trkpt>
      <trkpt lat="46.53071" lon="6.01946">
        <ele>705</ele>
        <time>2021-07-07T00:33:58Z</time>
      </trkpt>
      <trkpt lat="46.53076" lon="6.01976">
        <ele>704</ele>
        <time>2021-07-07T00:34:15Z</time>
      </trkpt>
      <trkpt lat="46.53081" lon="6.01999">
        <ele>704</ele>
        <time>2021-07-07T00:34:29Z</time>
      </trkpt>
      <trkpt lat="46.53086" lon="6.02019">
        <ele>705</ele>
        <time>2021-07-07T00:34:41Z</time>
      </trkpt>
      <trkpt lat="46.53087" lon="6.02021">
        <ele>706</ele>
        <time>2021-07-07T00:34:42Z</time>
      </trkpt>
      <trkpt lat="46.53091" lon="6.02039">
        <ele>707</ele>
        <time>2021-07-07T00:34:52Z</time>
      </trkpt>
      <trkpt lat="46.53093" lon="6.02064">
        <ele>708</ele>
        <time>2021-07-07T00:35:06Z</time>
      </trkpt>
      <trkpt lat="46.53093" lon="6.02065">
        <ele>708</ele>
        <time>2021-07-07T00:35:07Z</time>
      </trkpt>
      <trkpt lat="46.53085" lon="6.02067">
        <ele>705</ele>
        <time>2021-07-07T00:35:13Z</time>
      </trkpt>
      <trkpt lat="46.53065" lon="6.02071">
        <ele>704</ele>
        <time>2021-07-07T00:35:29Z</time>
      </trkpt>
      <trkpt lat="46.53049" lon="6.02075">
        <ele>703</ele>
        <time>2021-07-07T00:35:42Z</time>
      </trkpt>
      <trkpt lat="46.53026" lon="6.02075">
        <ele>702</ele>
        <time>2021-07-07T00:36:01Z</time>
      </trkpt>
      <trkpt lat="46.52956" lon="6.02092">
        <ele>701</ele>
        <time>2021-07-07T00:36:58Z</time>
      </trkpt>
      <trkpt lat="46.52914" lon="6.02108">
        <ele>702</ele>
        <time>2021-07-07T00:37:32Z</time>
      </trkpt>
      <trkpt lat="46.52858" lon="6.02129">
        <ele>702</ele>
        <time>2021-07-07T00:38:19Z</time>
      </trkpt>
      <trkpt lat="46.52815" lon="6.0215">
        <ele>701</ele>
        <time>2021-07-07T00:38:55Z</time>
      </trkpt>
      <trkpt lat="46.52799" lon="6.02158">
        <ele>701</ele>
        <time>2021-07-07T00:39:09Z</time>
      </trkpt>
      <trkpt lat="46.52788" lon="6.02163">
        <ele>700</ele>
        <time>2021-07-07T00:39:18Z</time>
      </trkpt>
      <trkpt lat="46.52757" lon="6.02174">
        <ele>700</ele>
        <time>2021-07-07T00:39:43Z</time>
      </trkpt>
      <trkpt lat="46.52746" lon="6.02177">
        <ele>700</ele>
        <time>2021-07-07T00:39:52Z</time>
      </trkpt>
      <trkpt lat="46.5273" lon="6.02181">
        <ele>701</ele>
        <time>2021-07-07T00:40:05Z</time>
      </trkpt>
      <trkpt lat="46.52693" lon="6.02185">
        <ele>701</ele>
        <time>2021-07-07T00:40:35Z</time>
      </trkpt>
      <trkpt lat="46.52668" lon="6.02183">
        <ele>700</ele>
        <time>2021-07-07T00:40:55Z</time>
      </trkpt>
      <trkpt lat="46.52642" lon="6.02177">
        <ele>699</ele>
        <time>2021-07-07T00:41:16Z</time>
      </trkpt>
      <trkpt lat="46.52625" lon="6.02174">
        <ele>699</ele>
        <time>2021-07-07T00:41:30Z</time>
      </trkpt>
      <trkpt lat="46.52593" lon="6.0217">
        <ele>698</ele>
        <time>2021-07-07T00:41:56Z</time>
      </trkpt>
      <trkpt lat="46.52565" lon="6.02166">
        <ele>700</ele>
        <time>2021-07-07T00:42:18Z</time>
      </trkpt>
      <trkpt lat="46.52504" lon="6.02156">
        <ele>705</ele>
        <time>2021-07-07T00:43:07Z</time>
      </trkpt>
      <trkpt lat="46.52449" lon="6.02147">
        <ele>703</ele>
        <time>2021-07-07T00:43:52Z</time>
      </trkpt>
      <trkpt lat="46.52438" lon="6.02145">
        <ele>703</ele>
        <time>2021-07-07T00:44:00Z</time>
      </trkpt>
      <trkpt lat="46.52418" lon="6.02141">
        <ele>702</ele>
        <time>2021-07-07T00:44:17Z</time>
      </trkpt>
      <trkpt lat="46.52368" lon="6.0215">
        <ele>702</ele>
        <time>2021-07-07T00:44:57Z</time>
      </trkpt>
      <trkpt lat="46.52366" lon="6.02151">
        <ele>702</ele>
        <time>2021-07-07T00:44:59Z</time>
      </trkpt>
      <trkpt lat="46.52358" lon="6.02152">
        <ele>702</ele>
        <time>2021-07-07T00:45:05Z</time>
      </trkpt>
      <trkpt lat="46.52347" lon="6.02154">
        <ele>702</ele>
        <time>2021-07-07T00:45:14Z</time>
      </trkpt>
      <trkpt lat="46.52329" lon="6.02158">
        <ele>702</ele>
        <time>2021-07-07T00:45:29Z</time>
      </trkpt>
      <trkpt lat="46.523" lon="6.02168">
        <ele>703</ele>
        <time>2021-07-07T00:45:52Z</time>
      </trkpt>
      <trkpt lat="46.52266" lon="6.02185">
        <ele>705</ele>
        <time>2021-07-07T00:46:21Z</time>
      </trkpt>
      <trkpt lat="46.5226" lon="6.02189">
        <ele>706</ele>
        <time>2021-07-07T00:46:26Z</time>
      </trkpt>
      <trkpt lat="46.52251" lon="6.02195">
        <ele>706</ele>
        <time>2021-07-07T00:46:34Z</time>
      </trkpt>
      <trkpt lat="46.52245" lon="6.02201">
        <ele>707</ele>
        <time>2021-07-07T00:46:40Z</time>
      </trkpt>
      <trkpt lat="46.52241" lon="6.02207">
        <ele>707</ele>
        <time>2021-07-07T00:46:45Z</time>
      </trkpt>
      <trkpt lat="46.52238" lon="6.02205">
        <ele>707</ele>
        <time>2021-07-07T00:46:47Z</time>
      </trkpt>
      <trkpt lat="46.5223" lon="6.02206">
        <ele>708</ele>
        <time>2021-07-07T00:46:54Z</time>
      </trkpt>
      <trkpt lat="46.52226" lon="6.02216">
        <ele>708</ele>
        <time>2021-07-07T00:47:00Z</time>
      </trkpt>
      <trkpt lat="46.52215" lon="6.0222">
        <ele>709</ele>
        <time>2021-07-07T00:47:09Z</time>
      </trkpt>
      <trkpt lat="46.52132" lon="6.02272">
        <ele>713</ele>
        <time>2021-07-07T00:48:22Z</time>
      </trkpt>
      <trkpt lat="46.52122" lon="6.02276">
        <ele>713</ele>
        <time>2021-07-07T00:48:30Z</time>
      </trkpt>
      <trkpt lat="46.52085" lon="6.02299">
        <ele>712</ele>
        <time>2021-07-07T00:49:02Z</time>
      </trkpt>
      <trkpt lat="46.52078" lon="6.02307">
        <ele>712</ele>
        <time>2021-07-07T00:49:09Z</time>
      </trkpt>
      <trkpt lat="46.5198" lon="6.02371">
        <ele>713</ele>
        <time>2021-07-07T00:50:35Z</time>
      </trkpt>
      <trkpt lat="46.51874" lon="6.02398">
        <ele>712</ele>
        <time>2021-07-07T00:52:02Z</time>
      </trkpt>
      <trkpt lat="46.51865" lon="6.02396">
        <ele>712</ele>
        <time>2021-07-07T00:52:09Z</time>
      </trkpt>
      <trkpt lat="46.51859" lon="6.02393">
        <ele>712</ele>
        <time>2021-07-07T00:52:14Z</time>
      </trkpt>
      <trkpt lat="46.51838" lon="6.02396">
        <ele>712</ele>
        <time>2021-07-07T00:52:31Z</time>
      </trkpt>
      <trkpt lat="46.51826" lon="6.02407">
        <ele>711</ele>
        <time>2021-07-07T00:52:42Z</time>
      </trkpt>
      <trkpt lat="46.51815" lon="6.02411">
        <ele>712</ele>
        <time>2021-07-07T00:52:51Z</time>
      </trkpt>
      <trkpt lat="46.51806" lon="6.02413">
        <ele>712</ele>
        <time>2021-07-07T00:52:59Z</time>
      </trkpt>
      <trkpt lat="46.51798" lon="6.02415">
        <ele>712</ele>
        <time>2021-07-07T00:53:05Z</time>
      </trkpt>
      <trkpt lat="46.51772" lon="6.02422">
        <ele>714</ele>
        <time>2021-07-07T00:53:26Z</time>
      </trkpt>
      <trkpt lat="46.51771" lon="6.02427">
        <ele>714</ele>
        <time>2021-07-07T00:53:29Z</time>
      </trkpt>
      <trkpt lat="46.51768" lon="6.0244">
        <ele>714</ele>
        <time>2021-07-07T00:53:37Z</time>
      </trkpt>
      <trkpt lat="46.51765" lon="6.02446">
        <ele>714</ele>
        <time>2021-07-07T00:53:41Z</time>
      </trkpt>
      <trkpt lat="46.51762" lon="6.02457">
        <ele>714</ele>
        <time>2021-07-07T00:53:47Z</time>
      </trkpt>
      <trkpt lat="46.51762" lon="6.02457">
        <ele>714</ele>
        <time>2021-07-07T00:53:47Z</time>
      </trkpt>
      <trkpt lat="46.5175" lon="6.02489">
        <ele>714</ele>
        <time>2021-07-07T00:54:07Z</time>
      </trkpt>
      <trkpt lat="46.51733" lon="6.02514">
        <ele>715</ele>
        <time>2021-07-07T00:54:27Z</time>
      </trkpt>
      <trkpt lat="46.51716" lon="6.02528">
        <ele>715</ele>
        <time>2021-07-07T00:54:42Z</time>
      </trkpt>
      <trkpt lat="46.5171" lon="6.02528">
        <ele>715</ele>
        <time>2021-07-07T00:54:47Z</time>
      </trkpt>
      <trkpt lat="46.51693" lon="6.02522">
        <ele>715</ele>
        <time>2021-07-07T00:55:01Z</time>
      </trkpt>
      <trkpt lat="46.51671" lon="6.02521">
        <ele>715</ele>
        <time>2021-07-07T00:55:19Z</time>
      </trkpt>
      <trkpt lat="46.51664" lon="6.02525">
        <ele>715</ele>
        <time>2021-07-07T00:55:25Z</time>
      </trkpt>
      <trkpt lat="46.51652" lon="6.02536">
        <ele>715</ele>
        <time>2021-07-07T00:55:36Z</time>
      </trkpt>
      <trkpt lat="46.51593" lon="6.0256">
        <ele>717</ele>
        <time>2021-07-07T00:56:25Z</time>
      </trkpt>
      <trkpt lat="46.51589" lon="6.02561">
        <ele>717</ele>
        <time>2021-07-07T00:56:28Z</time>
      </trkpt>
      <trkpt lat="46.51592" lon="6.0257">
        <ele>717</ele>
        <time>2021-07-07T00:56:34Z</time>
      </trkpt>
      <trkpt lat="46.51553" lon="6.02615">
        <ele>718</ele>
        <time>2021-07-07T00:57:14Z</time>
      </trkpt>
      <trkpt lat="46.51514" lon="6.0263">
        <ele>717</ele>
        <time>2021-07-07T00:57:46Z</time>
      </trkpt>
      <trkpt lat="46.5151" lon="6.0263">
        <ele>716</ele>
        <time>2021-07-07T00:57:49Z</time>
      </trkpt>
      <trkpt lat="46.51496" lon="6.02617">
        <ele>715</ele>
        <time>2021-07-07T00:58:03Z</time>
      </trkpt>
      <trkpt lat="46.51492" lon="6.02616">
        <ele>715</ele>
        <time>2021-07-07T00:58:06Z</time>
      </trkpt>
      <trkpt lat="46.51482" lon="6.0261">
        <ele>715</ele>
        <time>2021-07-07T00:58:15Z</time>
      </trkpt>
      <trkpt lat="46.51479" lon="6.02605">
        <ele>715</ele>
        <time>2021-07-07T00:58:18Z</time>
      </trkpt>
      <trkpt lat="46.51466" lon="6.02561">
        <ele>715</ele>
        <time>2021-07-07T00:58:45Z</time>
      </trkpt>
      <trkpt lat="46.51503" lon="6.02548">
        <ele>714</ele>
        <time>2021-07-07T00:59:15Z</time>
      </trkpt>
      <trkpt lat="46.51673" lon="6.02449">
        <ele>717</ele>
        <time>2021-07-07T01:01:42Z</time>
      </trkpt>
      <trkpt lat="46.51672" lon="6.02445">
        <ele>718</ele>
        <time>2021-07-07T01:01:44Z</time>
      </trkpt>
      <trkpt lat="46.51676" lon="6.02431">
        <ele>719</ele>
        <time>2021-07-07T01:01:52Z</time>
      </trkpt>
      <trkpt lat="46.51712" lon="6.02394">
        <ele>720</ele>
        <time>2021-07-07T01:02:28Z</time>
      </trkpt>
      <trkpt lat="46.51724" lon="6.02385">
        <ele>720</ele>
        <time>2021-07-07T01:02:39Z</time>
      </trkpt>
      <trkpt lat="46.51735" lon="6.02382">
        <ele>719</ele>
        <time>2021-07-07T01:02:47Z</time>
      </trkpt>
      <trkpt lat="46.51747" lon="6.02382">
        <ele>719</ele>
        <time>2021-07-07T01:02:57Z</time>
      </trkpt>
      <trkpt lat="46.51752" lon="6.02366">
        <ele>720</ele>
        <time>2021-07-07T01:03:07Z</time>
      </trkpt>
      <trkpt lat="46.51751" lon="6.02321">
        <ele>725</ele>
        <time>2021-07-07T01:03:32Z</time>
      </trkpt>
      <trkpt lat="46.51753" lon="6.02317">
        <ele>725</ele>
        <time>2021-07-07T01:03:34Z</time>
      </trkpt>
      <trkpt lat="46.51757" lon="6.02314">
        <ele>725</ele>
        <time>2021-07-07T01:03:38Z</time>
      </trkpt>
      <trkpt lat="46.51763" lon="6.02317">
        <ele>725</ele>
        <time>2021-07-07T01:03:43Z</time>
      </trkpt>
      <trkpt lat="46.5177" lon="6.02336">
        <ele>722</ele>
        <time>2021-07-07T01:03:55Z</time>
      </trkpt>
      <trkpt lat="46.51772" lon="6.02338">
        <ele>721</ele>
        <time>2021-07-07T01:03:57Z</time>
      </trkpt>
      <trkpt lat="46.51789" lon="6.0233">
        <ele>721</ele>
        <time>2021-07-07T01:04:11Z</time>
      </trkpt>
      <trkpt lat="46.51793" lon="6.02327">
        <ele>721</ele>
        <time>2021-07-07T01:04:15Z</time>
      </trkpt>
      <trkpt lat="46.51798" lon="6.02312">
        <ele>723</ele>
        <time>2021-07-07T01:04:24Z</time>
      </trkpt>
      <trkpt lat="46.518" lon="6.02312">
        <ele>723</ele>
        <time>2021-07-07T01:04:26Z</time>
      </trkpt>
      <trkpt lat="46.51811" lon="6.02313">
        <ele>722</ele>
        <time>2021-07-07T01:04:34Z</time>
      </trkpt>
      <trkpt lat="46.51828" lon="6.02309">
        <ele>722</ele>
        <time>2021-07-07T01:04:48Z</time>
      </trkpt>
      <trkpt lat="46.51841" lon="6.02301">
        <ele>722</ele>
        <time>2021-07-07T01:04:59Z</time>
      </trkpt>
      <trkpt lat="46.51875" lon="6.0227">
        <ele>721</ele>
        <time>2021-07-07T01:05:32Z</time>
      </trkpt>
      <trkpt lat="46.51956" lon="6.02199">
        <ele>719</ele>
        <time>2021-07-07T01:06:47Z</time>
      </trkpt>
      <trkpt lat="46.51965" lon="6.02194">
        <ele>718</ele>
        <time>2021-07-07T01:06:55Z</time>
      </trkpt>
      <trkpt lat="46.51974" lon="6.02199">
        <ele>717</ele>
        <time>2021-07-07T01:07:03Z</time>
      </trkpt>
      <trkpt lat="46.51977" lon="6.02204">
        <ele>716</ele>
        <time>2021-07-07T01:07:06Z</time>
      </trkpt>
      <trkpt lat="46.51987" lon="6.02233">
        <ele>711</ele>
        <time>2021-07-07T01:07:24Z</time>
      </trkpt>
      <trkpt lat="46.51989" lon="6.02237">
        <ele>710</ele>
        <time>2021-07-07T01:07:27Z</time>
      </trkpt>
      <trkpt lat="46.51991" lon="6.02241">
        <ele>710</ele>
        <time>2021-07-07T01:07:30Z</time>
      </trkpt>
      <trkpt lat="46.51992" lon="6.02243">
        <ele>709</ele>
        <time>2021-07-07T01:07:31Z</time>
      </trkpt>
      <trkpt lat="46.51993" lon="6.02245">
        <ele>709</ele>
        <time>2021-07-07T01:07:32Z</time>
      </trkpt>
      <trkpt lat="46.51996" lon="6.02257">
        <ele>709</ele>
        <time>2021-07-07T01:07:39Z</time>
      </trkpt>
      <trkpt lat="46.51997" lon="6.02259">
        <ele>709</ele>
        <time>2021-07-07T01:07:41Z</time>
      </trkpt>
      <trkpt lat="46.52106" lon="6.02194">
        <ele>708</ele>
        <time>2021-07-07T01:09:15Z</time>
      </trkpt>
      <trkpt lat="46.52183" lon="6.02153">
        <ele>706</ele>
        <time>2021-07-07T01:10:21Z</time>
      </trkpt>
      <trkpt lat="46.52182" lon="6.02147">
        <ele>706</ele>
        <time>2021-07-07T01:10:24Z</time>
      </trkpt>
      <trkpt lat="46.52179" lon="6.02135">
        <ele>706</ele>
        <time>2021-07-07T01:10:31Z</time>
      </trkpt>
      <trkpt lat="46.52178" lon="6.0213">
        <ele>706</ele>
        <time>2021-07-07T01:10:34Z</time>
      </trkpt>
      <trkpt lat="46.52172" lon="6.02125">
        <ele>707</ele>
        <time>2021-07-07T01:10:40Z</time>
      </trkpt>
      <trkpt lat="46.5218" lon="6.02122">
        <ele>706</ele>
        <time>2021-07-07T01:10:46Z</time>
      </trkpt>
      <trkpt lat="46.52199" lon="6.02116">
        <ele>705</ele>
        <time>2021-07-07T01:11:02Z</time>
      </trkpt>
      <trkpt lat="46.52224" lon="6.02107">
        <ele>704</ele>
        <time>2021-07-07T01:11:22Z</time>
      </trkpt>
      <trkpt lat="46.52227" lon="6.02102">
        <ele>704</ele>
        <time>2021-07-07T01:11:26Z</time>
      </trkpt>
      <trkpt lat="46.52224" lon="6.02082">
        <ele>704</ele>
        <time>2021-07-07T01:11:37Z</time>
      </trkpt>
      <trkpt lat="46.52226" lon="6.02078">
        <ele>705</ele>
        <time>2021-07-07T01:11:40Z</time>
      </trkpt>
      <trkpt lat="46.52227" lon="6.02075">
        <ele>706</ele>
        <time>2021-07-07T01:11:42Z</time>
      </trkpt>
      <trkpt lat="46.52253" lon="6.02063">
        <ele>708</ele>
        <time>2021-07-07T01:12:04Z</time>
      </trkpt>
      <trkpt lat="46.52341" lon="6.02056">
        <ele>707</ele>
        <time>2021-07-07T01:13:14Z</time>
      </trkpt>
      <trkpt lat="46.52342" lon="6.02086">
        <ele>700</ele>
        <time>2021-07-07T01:13:31Z</time>
      </trkpt>
      <trkpt lat="46.52409" lon="6.02075">
        <ele>701</ele>
        <time>2021-07-07T01:14:25Z</time>
      </trkpt>
      <trkpt lat="46.52419" lon="6.02072">
        <ele>702</ele>
        <time>2021-07-07T01:14:33Z</time>
      </trkpt>
      <trkpt lat="46.52432" lon="6.02062">
        <ele>705</ele>
        <time>2021-07-07T01:14:45Z</time>
      </trkpt>
      <trkpt lat="46.52453" lon="6.02055">
        <ele>709</ele>
        <time>2021-07-07T01:15:02Z</time>
      </trkpt>
      <trkpt lat="46.5249" lon="6.02056">
        <ele>713</ele>
        <time>2021-07-07T01:15:32Z</time>
      </trkpt>
      <trkpt lat="46.5251" lon="6.02062">
        <ele>713</ele>
        <time>2021-07-07T01:15:48Z</time>
      </trkpt>
      <trkpt lat="46.52556" lon="6.02089">
        <ele>706</ele>
        <time>2021-07-07T01:16:28Z</time>
      </trkpt>
      <trkpt lat="46.52588" lon="6.02104">
        <ele>705</ele>
        <time>2021-07-07T01:16:55Z</time>
      </trkpt>
      <trkpt lat="46.52603" lon="6.02107">
        <ele>704</ele>
        <time>2021-07-07T01:17:07Z</time>
      </trkpt>
      <trkpt lat="46.52631" lon="6.02119">
        <ele>702</ele>
        <time>2021-07-07T01:17:30Z</time>
      </trkpt>
      <trkpt lat="46.52639" lon="6.0211">
        <ele>702</ele>
        <time>2021-07-07T01:17:38Z</time>
      </trkpt>
      <trkpt lat="46.5265" lon="6.02105">
        <ele>702</ele>
        <time>2021-07-07T01:17:48Z</time>
      </trkpt>
      <trkpt lat="46.52675" lon="6.02102">
        <ele>702</ele>
        <time>2021-07-07T01:18:08Z</time>
      </trkpt>
      <trkpt lat="46.52714" lon="6.02083">
        <ele>701</ele>
        <time>2021-07-07T01:18:41Z</time>
      </trkpt>
      <trkpt lat="46.52727" lon="6.02077">
        <ele>704</ele>
        <time>2021-07-07T01:18:51Z</time>
      </trkpt>
      <trkpt lat="46.52743" lon="6.0207">
        <ele>708</ele>
        <time>2021-07-07T01:19:05Z</time>
      </trkpt>
      <trkpt lat="46.52757" lon="6.02064">
        <ele>710</ele>
        <time>2021-07-07T01:19:17Z</time>
      </trkpt>
      <trkpt lat="46.52771" lon="6.02059">
        <ele>711</ele>
        <time>2021-07-07T01:19:28Z</time>
      </trkpt>
      <trkpt lat="46.52813" lon="6.02032">
        <ele>711</ele>
        <time>2021-07-07T01:20:05Z</time>
      </trkpt>
      <trkpt lat="46.52869" lon="6.02009">
        <ele>702</ele>
        <time>2021-07-07T01:20:51Z</time>
      </trkpt>
      <trkpt lat="46.5288" lon="6.01995">
        <ele>701</ele>
        <time>2021-07-07T01:21:03Z</time>
      </trkpt>
      <trkpt lat="46.52885" lon="6.01988">
        <ele>701</ele>
        <time>2021-07-07T01:21:09Z</time>
      </trkpt>
      <trkpt lat="46.52895" lon="6.01975">
        <ele>700</ele>
        <time>2021-07-07T01:21:19Z</time>
      </trkpt>
      <trkpt lat="46.52905" lon="6.0197">
        <ele>698</ele>
        <time>2021-07-07T01:21:28Z</time>
      </trkpt>
      <trkpt lat="46.52923" lon="6.01939">
        <ele>696</ele>
        <time>2021-07-07T01:21:50Z</time>
      </trkpt>
      <trkpt lat="46.52933" lon="6.01917">
        <ele>696</ele>
        <time>2021-07-07T01:22:05Z</time>
      </trkpt>
      <trkpt lat="46.5293" lon="6.01911">
        <ele>697</ele>
        <time>2021-07-07T01:22:09Z</time>
      </trkpt>
      <trkpt lat="46.52929" lon="6.01902">
        <ele>699</ele>
        <time>2021-07-07T01:22:14Z</time>
      </trkpt>
      <trkpt lat="46.52931" lon="6.01896">
        <ele>700</ele>
        <time>2021-07-07T01:22:18Z</time>
      </trkpt>
      <trkpt lat="46.5295" lon="6.0186">
        <ele>703</ele>
        <time>2021-07-07T01:22:43Z</time>
      </trkpt>
      <trkpt lat="46.52973" lon="6.01824">
        <ele>701</ele>
        <time>2021-07-07T01:23:10Z</time>
      </trkpt>
      <trkpt lat="46.52976" lon="6.01813">
        <ele>702</ele>
        <time>2021-07-07T01:23:16Z</time>
      </trkpt>
      <trkpt lat="46.52974" lon="6.01805">
        <ele>704</ele>
        <time>2021-07-07T01:23:21Z</time>
      </trkpt>
      <trkpt lat="46.52966" lon="6.018">
        <ele>708</ele>
        <time>2021-07-07T01:23:28Z</time>
      </trkpt>
      <trkpt lat="46.52923" lon="6.01823">
        <ele>717</ele>
        <time>2021-07-07T01:24:05Z</time>
      </trkpt>
      <trkpt lat="46.52906" lon="6.01832">
        <ele>721</ele>
        <time>2021-07-07T01:24:19Z</time>
      </trkpt>
      <trkpt lat="46.52891" lon="6.01843">
        <ele>726</ele>
        <time>2021-07-07T01:24:32Z</time>
      </trkpt>
      <trkpt lat="46.52843" lon="6.019">
        <ele>732</ele>
        <time>2021-07-07T01:25:22Z</time>
      </trkpt>
      <trkpt lat="46.52824" lon="6.01933">
        <ele>732</ele>
        <time>2021-07-07T01:25:46Z</time>
      </trkpt>
      <trkpt lat="46.52823" lon="6.01941">
        <ele>730</ele>
        <time>2021-07-07T01:25:50Z</time>
      </trkpt>
      <trkpt lat="46.52829" lon="6.01966">
        <ele>720</ele>
        <time>2021-07-07T01:26:05Z</time>
      </trkpt>
      <trkpt lat="46.52828" lon="6.01973">
        <ele>719</ele>
        <time>2021-07-07T01:26:09Z</time>
      </trkpt>
      <trkpt lat="46.52826" lon="6.01981">
        <ele>718</ele>
        <time>2021-07-07T01:26:13Z</time>
      </trkpt>
      <trkpt lat="46.52818" lon="6.01988">
        <ele>720</ele>
        <time>2021-07-07T01:26:21Z</time>
      </trkpt>
      <trkpt lat="46.52812" lon="6.01988">
        <ele>723</ele>
        <time>2021-07-07T01:26:26Z</time>
      </trkpt>
      <trkpt lat="46.52801" lon="6.01985">
        <ele>730</ele>
        <time>2021-07-07T01:26:35Z</time>
      </trkpt>
      <trkpt lat="46.52805" lon="6.01959">
        <ele>735</ele>
        <time>2021-07-07T01:26:49Z</time>
      </trkpt>
      <trkpt lat="46.52802" lon="6.01939">
        <ele>743</ele>
        <time>2021-07-07T01:27:01Z</time>
      </trkpt>
      <trkpt lat="46.52804" lon="6.0191">
        <ele>750</ele>
        <time>2021-07-07T01:27:17Z</time>
      </trkpt>
      <trkpt lat="46.52803" lon="6.01882">
        <ele>758</ele>
        <time>2021-07-07T01:27:32Z</time>
      </trkpt>
      <trkpt lat="46.52808" lon="6.01855">
        <ele>763</ele>
        <time>2021-07-07T01:27:48Z</time>
      </trkpt>
      <trkpt lat="46.5283" lon="6.01799">
        <ele>767</ele>
        <time>2021-07-07T01:28:23Z</time>
      </trkpt>
      <trkpt lat="46.52863" lon="6.01736">
        <ele>770</ele>
        <time>2021-07-07T01:29:07Z</time>
      </trkpt>
      <trkpt lat="46.52859" lon="6.01729">
        <ele>774</ele>
        <time>2021-07-07T01:29:12Z</time>
      </trkpt>
      <trkpt lat="46.52864" lon="6.01713">
        <ele>776</ele>
        <time>2021-07-07T01:29:21Z</time>
      </trkpt>
      <trkpt lat="46.52864" lon="6.01699">
        <ele>781</ele>
        <time>2021-07-07T01:29:29Z</time>
      </trkpt>
      <trkpt lat="46.52869" lon="6.01692">
        <ele>780</ele>
        <time>2021-07-07T01:29:35Z</time>
      </trkpt>
      <trkpt lat="46.52876" lon="6.01664">
        <ele>785</ele>
        <time>2021-07-07T01:29:51Z</time>
      </trkpt>
      <trkpt lat="46.52873" lon="6.01591">
        <ele>798</ele>
        <time>2021-07-07T01:30:31Z</time>
      </trkpt>
      <trkpt lat="46.52869" lon="6.01564">
        <ele>803</ele>
        <time>2021-07-07T01:30:47Z</time>
      </trkpt>
      <trkpt lat="46.52856" lon="6.01514">
        <ele>814</ele>
        <time>2021-07-07T01:31:16Z</time>
      </trkpt>
      <trkpt lat="46.52845" lon="6.015">
        <ele>820</ele>
        <time>2021-07-07T01:31:28Z</time>
      </trkpt>
      <trkpt lat="46.52812" lon="6.01486">
        <ele>831</ele>
        <time>2021-07-07T01:31:55Z</time>
      </trkpt>
      <trkpt lat="46.52799" lon="6.01491">
        <ele>835</ele>
        <time>2021-07-07T01:32:06Z</time>
      </trkpt>
      <trkpt lat="46.52786" lon="6.01486">
        <ele>839</ele>
        <time>2021-07-07T01:32:17Z</time>
      </trkpt>
      <trkpt lat="46.52732" lon="6.01449">
        <ele>852</ele>
        <time>2021-07-07T01:33:05Z</time>
      </trkpt>
      <trkpt lat="46.52716" lon="6.01436">
        <ele>855</ele>
        <time>2021-07-07T01:33:19Z</time>
      </trkpt>
      <trkpt lat="46.52722" lon="6.01431">
        <ele>853</ele>
        <time>2021-07-07T01:33:25Z</time>
      </trkpt>
      <trkpt lat="46.52724" lon="6.01416">
        <ele>852</ele>
        <time>2021-07-07T01:33:33Z</time>
      </trkpt>
      <trkpt lat="46.52704" lon="6.01403">
        <ele>855</ele>
        <time>2021-07-07T01:33:51Z</time>
      </trkpt>
      <trkpt lat="46.5266" lon="6.01388">
        <ele>864</ele>
        <time>2021-07-07T01:34:27Z</time>
      </trkpt>
      <trkpt lat="46.52644" lon="6.01365">
        <ele>867</ele>
        <time>2021-07-07T01:34:45Z</time>
      </trkpt>
      <trkpt lat="46.52635" lon="6.01334">
        <ele>867</ele>
        <time>2021-07-07T01:35:04Z</time>
      </trkpt>
      <trkpt lat="46.52644" lon="6.01299">
        <ele>868</ele>
        <time>2021-07-07T01:35:24Z</time>
      </trkpt>
      <trkpt lat="46.52656" lon="6.01227">
        <ele>872</ele>
        <time>2021-07-07T01:36:05Z</time>
      </trkpt>
      <trkpt lat="46.52661" lon="6.01202">
        <ele>873</ele>
        <time>2021-07-07T01:36:19Z</time>
      </trkpt>
      <trkpt lat="46.5266" lon="6.01159">
        <ele>877</ele>
        <time>2021-07-07T01:36:43Z</time>
      </trkpt>
      <trkpt lat="46.52651" lon="6.01131">
        <ele>881</ele>
        <time>2021-07-07T01:37:00Z</time>
      </trkpt>
      <trkpt lat="46.52638" lon="6.01128">
        <ele>883</ele>
        <time>2021-07-07T01:37:11Z</time>
      </trkpt>
      <trkpt lat="46.5258" lon="6.01163">
        <ele>890</ele>
        <time>2021-07-07T01:38:01Z</time>
      </trkpt>
      <trkpt lat="46.52548" lon="6.0118">
        <ele>894</ele>
        <time>2021-07-07T01:38:28Z</time>
      </trkpt>
      <trkpt lat="46.52532" lon="6.01177">
        <ele>896</ele>
        <time>2021-07-07T01:38:41Z</time>
      </trkpt>
      <trkpt lat="46.52513" lon="6.01144">
        <ele>899</ele>
        <time>2021-07-07T01:39:05Z</time>
      </trkpt>
      <trkpt lat="46.52489" lon="6.01106">
        <ele>903</ele>
        <time>2021-07-07T01:39:33Z</time>
      </trkpt>
      <trkpt lat="46.52463" lon="6.01085">
        <ele>906</ele>
        <time>2021-07-07T01:39:57Z</time>
      </trkpt>
      <trkpt lat="46.52441" lon="6.0106">
        <ele>910</ele>
        <time>2021-07-07T01:40:19Z</time>
      </trkpt>
      <trkpt lat="46.52417" lon="6.01045">
        <ele>913</ele>
        <time>2021-07-07T01:40:40Z</time>
      </trkpt>
      <trkpt lat="46.52386" lon="6.0103">
        <ele>920</ele>
        <time>2021-07-07T01:41:06Z</time>
      </trkpt>
      <trkpt lat="46.5238" lon="6.01017">
        <ele>921</ele>
        <time>2021-07-07T01:41:15Z</time>
      </trkpt>
      <trkpt lat="46.5237" lon="6.0097">
        <ele>921</ele>
        <time>2021-07-07T01:41:42Z</time>
      </trkpt>
      <trkpt lat="46.52335" lon="6.00918">
        <ele>922</ele>
        <time>2021-07-07T01:42:22Z</time>
      </trkpt>
      <trkpt lat="46.52284" lon="6.00881">
        <ele>931</ele>
        <time>2021-07-07T01:43:08Z</time>
      </trkpt>
      <trkpt lat="46.52266" lon="6.00858">
        <ele>931</ele>
        <time>2021-07-07T01:43:27Z</time>
      </trkpt>
      <trkpt lat="46.52178" lon="6.0071">
        <ele>930</ele>
        <time>2021-07-07T01:45:15Z</time>
      </trkpt>
      <trkpt lat="46.52094" lon="6.00564">
        <ele>930</ele>
        <time>2021-07-07T01:47:00Z</time>
      </trkpt>
      <trkpt lat="46.52039" lon="6.00444">
        <ele>929</ele>
        <time>2021-07-07T01:48:19Z</time>
      </trkpt>
      <trkpt lat="46.52021" lon="6.00421">
        <ele>928</ele>
        <time>2021-07-07T01:48:38Z</time>
      </trkpt>
      <trkpt lat="46.51995" lon="6.004">
        <ele>930</ele>
        <time>2021-07-07T01:49:02Z</time>
      </trkpt>
      <trkpt lat="46.51971" lon="6.00388">
        <ele>935</ele>
        <time>2021-07-07T01:49:22Z</time>
      </trkpt>
      <trkpt lat="46.51958" lon="6.00384">
        <ele>938</ele>
        <time>2021-07-07T01:49:33Z</time>
      </trkpt>
      <trkpt lat="46.51945" lon="6.00375">
        <ele>941</ele>
        <time>2021-07-07T01:49:45Z</time>
      </trkpt>
      <trkpt lat="46.51938" lon="6.00363">
        <ele>942</ele>
        <time>2021-07-07T01:49:53Z</time>
      </trkpt>
      <trkpt lat="46.51933" lon="6.00348">
        <ele>942</ele>
        <time>2021-07-07T01:50:02Z</time>
      </trkpt>
      <trkpt lat="46.51931" lon="6.00314">
        <ele>942</ele>
        <time>2021-07-07T01:50:21Z</time>
      </trkpt>
      <trkpt lat="46.51935" lon="6.00242">
        <ele>941</ele>
        <time>2021-07-07T01:51:01Z</time>
      </trkpt>
      <trkpt lat="46.51929" lon="6.00166">
        <ele>943</ele>
        <time>2021-07-07T01:51:43Z</time>
      </trkpt>
      <trkpt lat="46.51915" lon="6.00076">
        <ele>944</ele>
        <time>2021-07-07T01:52:34Z</time>
      </trkpt>
      <trkpt lat="46.51906" lon="6.00037">
        <ele>945</ele>
        <time>2021-07-07T01:52:57Z</time>
      </trkpt>
      <trkpt lat="46.519" lon="6.00021">
        <ele>945</ele>
        <time>2021-07-07T01:53:07Z</time>
      </trkpt>
      <trkpt lat="46.51686" lon="5.99718">
        <ele>943</ele>
        <time>2021-07-07T01:57:06Z</time>
      </trkpt>
      <trkpt lat="46.51703" lon="5.99722">
        <ele>943</ele>
        <time>2021-07-07T01:57:20Z</time>
      </trkpt>
    </trkseg>
  </trk>
</gpx>